<?xml version="1.0" encoding="UTF-8" standalone="no" ?>
<gpx xmlns="http://www.topografix.com/GPX/1/1" xmlns:xsi="http://www.w3.org/2001/XMLSchema-instance" xsi:schemaLocation="http://www.topografix.com/GPX/1/1 http://www.topografix.com/GPX/1/1/gpx.xsd" version="1.1" creator="VisuGPX - https://www.visugpx.com">
  <metadata>
    <name>547_Circuit 70 km Les Herbiers_Les Herbiers édité par cth85.com</name>
    <desc><![CDATA[Circuit de 70 km passant par:
Les Herbiers
le coup de brisque, l'ormeau
Chambretaud
le bois niard, D72
à gauche, deuxième à droite 
la grande brosse, les noirs, D111
à gauche sur 800, à droite le landreau
Mortagne sur Sèvre par ancienne N160
rejoindre le cormier par voie véhicules lents
D202 Saint Christophe du Bois
D202, D53 Saint Aubin des Ormeaux
D53 Saint Martin des Tilleuls
D53, D72 Les Landes Genusson
D37 Bazoges en Paillers
D23 direction les herbiers sur 3,5 km
à droite, D53 Mesnard la Barotière
D11 Les Herbiers]]></desc>
  </metadata>
  <trk>
    <name><![CDATA[15479136-le cormier]]></name>
    <trkseg>
      <trkpt lat="46.86367" lon="-1.00578">
        <ele>120</ele>
        <time>2022-09-02T15:00:00Z</time>
      </trkpt>
      <trkpt lat="46.86381" lon="-1.00562">
        <ele>120</ele>
        <time>2022-09-02T15:00:03Z</time>
      </trkpt>
      <trkpt lat="46.86391" lon="-1.00556">
        <ele>120</ele>
        <time>2022-09-02T15:00:05Z</time>
      </trkpt>
      <trkpt lat="46.86426" lon="-1.00564">
        <ele>120</ele>
        <time>2022-09-02T15:00:11Z</time>
      </trkpt>
      <trkpt lat="46.86461" lon="-1.00561">
        <ele>120</ele>
        <time>2022-09-02T15:00:18Z</time>
      </trkpt>
      <trkpt lat="46.86495" lon="-1.00567">
        <ele>119</ele>
        <time>2022-09-02T15:00:24Z</time>
      </trkpt>
      <trkpt lat="46.86523" lon="-1.00577">
        <ele>118</ele>
        <time>2022-09-02T15:00:29Z</time>
      </trkpt>
      <trkpt lat="46.86573" lon="-1.00609">
        <ele>117</ele>
        <time>2022-09-02T15:00:39Z</time>
      </trkpt>
      <trkpt lat="46.86595" lon="-1.00621">
        <ele>116</ele>
        <time>2022-09-02T15:00:43Z</time>
      </trkpt>
      <trkpt lat="46.86664" lon="-1.00646">
        <ele>111</ele>
        <time>2022-09-02T15:00:55Z</time>
      </trkpt>
      <trkpt lat="46.86708" lon="-1.0066">
        <ele>111</ele>
        <time>2022-09-02T15:01:03Z</time>
      </trkpt>
      <trkpt lat="46.86712" lon="-1.00666">
        <ele>111</ele>
        <time>2022-09-02T15:01:04Z</time>
      </trkpt>
      <trkpt lat="46.86714" lon="-1.00674">
        <ele>111</ele>
        <time>2022-09-02T15:01:05Z</time>
      </trkpt>
      <trkpt lat="46.86765" lon="-1.00654">
        <ele>111</ele>
        <time>2022-09-02T15:01:15Z</time>
      </trkpt>
      <trkpt lat="46.86836" lon="-1.00634">
        <ele>112</ele>
        <time>2022-09-02T15:01:28Z</time>
      </trkpt>
      <trkpt lat="46.86853" lon="-1.00633">
        <ele>112</ele>
        <time>2022-09-02T15:01:31Z</time>
      </trkpt>
      <trkpt lat="46.86937" lon="-1.00661">
        <ele>109</ele>
        <time>2022-09-02T15:01:46Z</time>
      </trkpt>
      <trkpt lat="46.86948" lon="-1.00671">
        <ele>109</ele>
        <time>2022-09-02T15:01:48Z</time>
      </trkpt>
      <trkpt lat="46.86977" lon="-1.00669">
        <ele>108</ele>
        <time>2022-09-02T15:01:54Z</time>
      </trkpt>
      <trkpt lat="46.87023" lon="-1.0072">
        <ele>105</ele>
        <time>2022-09-02T15:02:04Z</time>
      </trkpt>
      <trkpt lat="46.87041" lon="-1.00737">
        <ele>105</ele>
        <time>2022-09-02T15:02:08Z</time>
      </trkpt>
      <trkpt lat="46.87047" lon="-1.0065">
        <ele>105</ele>
        <time>2022-09-02T15:02:18Z</time>
      </trkpt>
      <trkpt lat="46.87052" lon="-1.00629">
        <ele>104</ele>
        <time>2022-09-02T15:02:21Z</time>
      </trkpt>
      <trkpt lat="46.87054" lon="-1.00608">
        <ele>104</ele>
        <time>2022-09-02T15:02:24Z</time>
      </trkpt>
      <trkpt lat="46.8705" lon="-1.00583">
        <ele>104</ele>
        <time>2022-09-02T15:02:27Z</time>
      </trkpt>
      <trkpt lat="46.87021" lon="-1.00492">
        <ele>105</ele>
        <time>2022-09-02T15:02:39Z</time>
      </trkpt>
      <trkpt lat="46.87011" lon="-1.00447">
        <ele>104</ele>
        <time>2022-09-02T15:02:45Z</time>
      </trkpt>
      <trkpt lat="46.87002" lon="-1.00378">
        <ele>104</ele>
        <time>2022-09-02T15:02:53Z</time>
      </trkpt>
      <trkpt lat="46.86987" lon="-1.00232">
        <ele>107</ele>
        <time>2022-09-02T15:03:11Z</time>
      </trkpt>
      <trkpt lat="46.86985" lon="-1.00167">
        <ele>108</ele>
        <time>2022-09-02T15:03:19Z</time>
      </trkpt>
      <trkpt lat="46.86982" lon="-1.00129">
        <ele>110</ele>
        <time>2022-09-02T15:03:24Z</time>
      </trkpt>
      <trkpt lat="46.87067" lon="-1.00102">
        <ele>108</ele>
        <time>2022-09-02T15:03:39Z</time>
      </trkpt>
      <trkpt lat="46.87073" lon="-1.00101">
        <ele>108</ele>
        <time>2022-09-02T15:03:40Z</time>
      </trkpt>
      <trkpt lat="46.87077" lon="-1.00095">
        <ele>108</ele>
        <time>2022-09-02T15:03:41Z</time>
      </trkpt>
      <trkpt lat="46.87083" lon="-1.00095">
        <ele>108</ele>
        <time>2022-09-02T15:03:42Z</time>
      </trkpt>
      <trkpt lat="46.87098" lon="-1.00072">
        <ele>108</ele>
        <time>2022-09-02T15:03:46Z</time>
      </trkpt>
      <trkpt lat="46.8712" lon="-1.00031">
        <ele>108</ele>
        <time>2022-09-02T15:03:53Z</time>
      </trkpt>
      <trkpt lat="46.87132" lon="-1.0002">
        <ele>107</ele>
        <time>2022-09-02T15:03:55Z</time>
      </trkpt>
      <trkpt lat="46.87205" lon="-0.99996">
        <ele>108</ele>
        <time>2022-09-02T15:04:08Z</time>
      </trkpt>
      <trkpt lat="46.87257" lon="-0.99981">
        <ele>111</ele>
        <time>2022-09-02T15:04:18Z</time>
      </trkpt>
      <trkpt lat="46.87339" lon="-0.99953">
        <ele>120</ele>
        <time>2022-09-02T15:04:33Z</time>
      </trkpt>
      <trkpt lat="46.874" lon="-0.99926">
        <ele>121</ele>
        <time>2022-09-02T15:04:44Z</time>
      </trkpt>
      <trkpt lat="46.87407" lon="-0.99917">
        <ele>121</ele>
        <time>2022-09-02T15:04:46Z</time>
      </trkpt>
      <trkpt lat="46.87415" lon="-0.99898">
        <ele>121</ele>
        <time>2022-09-02T15:04:49Z</time>
      </trkpt>
      <trkpt lat="46.87423" lon="-0.99868">
        <ele>121</ele>
        <time>2022-09-02T15:04:52Z</time>
      </trkpt>
      <trkpt lat="46.87433" lon="-0.99771">
        <ele>123</ele>
        <time>2022-09-02T15:05:04Z</time>
      </trkpt>
      <trkpt lat="46.87438" lon="-0.99752">
        <ele>124</ele>
        <time>2022-09-02T15:05:07Z</time>
      </trkpt>
      <trkpt lat="46.87432" lon="-0.9972">
        <ele>125</ele>
        <time>2022-09-02T15:05:11Z</time>
      </trkpt>
      <trkpt lat="46.87431" lon="-0.99692">
        <ele>126</ele>
        <time>2022-09-02T15:05:14Z</time>
      </trkpt>
      <trkpt lat="46.87413" lon="-0.99463">
        <ele>127</ele>
        <time>2022-09-02T15:05:42Z</time>
      </trkpt>
      <trkpt lat="46.874" lon="-0.99394">
        <ele>127</ele>
        <time>2022-09-02T15:05:51Z</time>
      </trkpt>
      <trkpt lat="46.87381" lon="-0.99333">
        <ele>127</ele>
        <time>2022-09-02T15:05:59Z</time>
      </trkpt>
      <trkpt lat="46.87377" lon="-0.99299">
        <ele>128</ele>
        <time>2022-09-02T15:06:03Z</time>
      </trkpt>
      <trkpt lat="46.87377" lon="-0.99291">
        <ele>128</ele>
        <time>2022-09-02T15:06:04Z</time>
      </trkpt>
      <trkpt lat="46.87383" lon="-0.99173">
        <ele>132</ele>
        <time>2022-09-02T15:06:19Z</time>
      </trkpt>
      <trkpt lat="46.8739" lon="-0.99143">
        <ele>133</ele>
        <time>2022-09-02T15:06:23Z</time>
      </trkpt>
      <trkpt lat="46.874" lon="-0.99117">
        <ele>133</ele>
        <time>2022-09-02T15:06:26Z</time>
      </trkpt>
      <trkpt lat="46.87411" lon="-0.99053">
        <ele>135</ele>
        <time>2022-09-02T15:06:34Z</time>
      </trkpt>
      <trkpt lat="46.87414" lon="-0.99011">
        <ele>137</ele>
        <time>2022-09-02T15:06:39Z</time>
      </trkpt>
      <trkpt lat="46.87414" lon="-0.98963">
        <ele>137</ele>
        <time>2022-09-02T15:06:45Z</time>
      </trkpt>
      <trkpt lat="46.87404" lon="-0.98906">
        <ele>138</ele>
        <time>2022-09-02T15:06:52Z</time>
      </trkpt>
      <trkpt lat="46.87397" lon="-0.98839">
        <ele>139</ele>
        <time>2022-09-02T15:07:01Z</time>
      </trkpt>
      <trkpt lat="46.87402" lon="-0.98749">
        <ele>141</ele>
        <time>2022-09-02T15:07:12Z</time>
      </trkpt>
      <trkpt lat="46.8741" lon="-0.98662">
        <ele>145</ele>
        <time>2022-09-02T15:07:22Z</time>
      </trkpt>
      <trkpt lat="46.87407" lon="-0.98624">
        <ele>146</ele>
        <time>2022-09-02T15:07:27Z</time>
      </trkpt>
      <trkpt lat="46.87386" lon="-0.98457">
        <ele>150</ele>
        <time>2022-09-02T15:07:48Z</time>
      </trkpt>
      <trkpt lat="46.87382" lon="-0.98372">
        <ele>152</ele>
        <time>2022-09-02T15:07:58Z</time>
      </trkpt>
      <trkpt lat="46.87382" lon="-0.98306">
        <ele>155</ele>
        <time>2022-09-02T15:08:06Z</time>
      </trkpt>
      <trkpt lat="46.87388" lon="-0.98249">
        <ele>157</ele>
        <time>2022-09-02T15:08:13Z</time>
      </trkpt>
      <trkpt lat="46.87392" lon="-0.98221">
        <ele>159</ele>
        <time>2022-09-02T15:08:16Z</time>
      </trkpt>
      <trkpt lat="46.87406" lon="-0.98158">
        <ele>162</ele>
        <time>2022-09-02T15:08:25Z</time>
      </trkpt>
      <trkpt lat="46.87405" lon="-0.98147">
        <ele>162</ele>
        <time>2022-09-02T15:08:26Z</time>
      </trkpt>
      <trkpt lat="46.87377" lon="-0.98099">
        <ele>160</ele>
        <time>2022-09-02T15:08:34Z</time>
      </trkpt>
      <trkpt lat="46.87408" lon="-0.98062">
        <ele>162</ele>
        <time>2022-09-02T15:08:41Z</time>
      </trkpt>
      <trkpt lat="46.8743" lon="-0.98042">
        <ele>163</ele>
        <time>2022-09-02T15:08:45Z</time>
      </trkpt>
      <trkpt lat="46.87442" lon="-0.98034">
        <ele>164</ele>
        <time>2022-09-02T15:08:48Z</time>
      </trkpt>
      <trkpt lat="46.87455" lon="-0.98027">
        <ele>164</ele>
        <time>2022-09-02T15:08:50Z</time>
      </trkpt>
      <trkpt lat="46.87538" lon="-0.97997">
        <ele>165</ele>
        <time>2022-09-02T15:09:05Z</time>
      </trkpt>
      <trkpt lat="46.87564" lon="-0.97985">
        <ele>165</ele>
        <time>2022-09-02T15:09:10Z</time>
      </trkpt>
      <trkpt lat="46.87576" lon="-0.97976">
        <ele>166</ele>
        <time>2022-09-02T15:09:13Z</time>
      </trkpt>
      <trkpt lat="46.87624" lon="-0.97935">
        <ele>167</ele>
        <time>2022-09-02T15:09:22Z</time>
      </trkpt>
      <trkpt lat="46.87666" lon="-0.97889">
        <ele>170</ele>
        <time>2022-09-02T15:09:32Z</time>
      </trkpt>
      <trkpt lat="46.8769" lon="-0.97871">
        <ele>171</ele>
        <time>2022-09-02T15:09:37Z</time>
      </trkpt>
      <trkpt lat="46.87725" lon="-0.97861">
        <ele>172</ele>
        <time>2022-09-02T15:09:43Z</time>
      </trkpt>
      <trkpt lat="46.87804" lon="-0.97848">
        <ele>171</ele>
        <time>2022-09-02T15:09:57Z</time>
      </trkpt>
      <trkpt lat="46.87912" lon="-0.97804">
        <ele>168</ele>
        <time>2022-09-02T15:10:17Z</time>
      </trkpt>
      <trkpt lat="46.87953" lon="-0.97791">
        <ele>168</ele>
        <time>2022-09-02T15:10:24Z</time>
      </trkpt>
      <trkpt lat="46.88038" lon="-0.97783">
        <ele>170</ele>
        <time>2022-09-02T15:10:40Z</time>
      </trkpt>
      <trkpt lat="46.88045" lon="-0.9778">
        <ele>171</ele>
        <time>2022-09-02T15:10:41Z</time>
      </trkpt>
      <trkpt lat="46.8805" lon="-0.97776">
        <ele>171</ele>
        <time>2022-09-02T15:10:42Z</time>
      </trkpt>
      <trkpt lat="46.88057" lon="-0.97762">
        <ele>172</ele>
        <time>2022-09-02T15:10:44Z</time>
      </trkpt>
      <trkpt lat="46.88076" lon="-0.97681">
        <ele>175</ele>
        <time>2022-09-02T15:10:54Z</time>
      </trkpt>
      <trkpt lat="46.88121" lon="-0.97572">
        <ele>182</ele>
        <time>2022-09-02T15:11:10Z</time>
      </trkpt>
      <trkpt lat="46.88135" lon="-0.97534">
        <ele>184</ele>
        <time>2022-09-02T15:11:15Z</time>
      </trkpt>
      <trkpt lat="46.88148" lon="-0.9749">
        <ele>186</ele>
        <time>2022-09-02T15:11:21Z</time>
      </trkpt>
      <trkpt lat="46.88157" lon="-0.97452">
        <ele>187</ele>
        <time>2022-09-02T15:11:26Z</time>
      </trkpt>
      <trkpt lat="46.88178" lon="-0.973">
        <ele>197</ele>
        <time>2022-09-02T15:11:45Z</time>
      </trkpt>
      <trkpt lat="46.8819" lon="-0.97264">
        <ele>199</ele>
        <time>2022-09-02T15:11:50Z</time>
      </trkpt>
      <trkpt lat="46.88214" lon="-0.97205">
        <ele>205</ele>
        <time>2022-09-02T15:11:58Z</time>
      </trkpt>
      <trkpt lat="46.88253" lon="-0.97134">
        <ele>213</ele>
        <time>2022-09-02T15:12:09Z</time>
      </trkpt>
      <trkpt lat="46.88391" lon="-0.96917">
        <ele>224</ele>
        <time>2022-09-02T15:12:45Z</time>
      </trkpt>
      <trkpt lat="46.88397" lon="-0.96908">
        <ele>225</ele>
        <time>2022-09-02T15:12:47Z</time>
      </trkpt>
      <trkpt lat="46.884" lon="-0.96899">
        <ele>224</ele>
        <time>2022-09-02T15:12:48Z</time>
      </trkpt>
      <trkpt lat="46.88408" lon="-0.96897">
        <ele>225</ele>
        <time>2022-09-02T15:12:49Z</time>
      </trkpt>
      <trkpt lat="46.88457" lon="-0.96869">
        <ele>222</ele>
        <time>2022-09-02T15:12:59Z</time>
      </trkpt>
      <trkpt lat="46.88461" lon="-0.96869">
        <ele>222</ele>
        <time>2022-09-02T15:12:59Z</time>
      </trkpt>
      <trkpt lat="46.88467" lon="-0.96873">
        <ele>222</ele>
        <time>2022-09-02T15:13:01Z</time>
      </trkpt>
      <trkpt lat="46.88541" lon="-0.96964">
        <ele>226</ele>
        <time>2022-09-02T15:13:18Z</time>
      </trkpt>
      <trkpt lat="46.88572" lon="-0.96997">
        <ele>227</ele>
        <time>2022-09-02T15:13:25Z</time>
      </trkpt>
      <trkpt lat="46.88668" lon="-0.97107">
        <ele>225</ele>
        <time>2022-09-02T15:13:46Z</time>
      </trkpt>
      <trkpt lat="46.88714" lon="-0.97144">
        <ele>226</ele>
        <time>2022-09-02T15:13:56Z</time>
      </trkpt>
      <trkpt lat="46.88765" lon="-0.97178">
        <ele>228</ele>
        <time>2022-09-02T15:14:06Z</time>
      </trkpt>
      <trkpt lat="46.88809" lon="-0.97202">
        <ele>230</ele>
        <time>2022-09-02T15:14:14Z</time>
      </trkpt>
      <trkpt lat="46.88876" lon="-0.97233">
        <ele>234</ele>
        <time>2022-09-02T15:14:26Z</time>
      </trkpt>
      <trkpt lat="46.88913" lon="-0.9724">
        <ele>236</ele>
        <time>2022-09-02T15:14:33Z</time>
      </trkpt>
      <trkpt lat="46.88979" lon="-0.97241">
        <ele>237</ele>
        <time>2022-09-02T15:14:45Z</time>
      </trkpt>
      <trkpt lat="46.88998" lon="-0.9724">
        <ele>237</ele>
        <time>2022-09-02T15:14:48Z</time>
      </trkpt>
      <trkpt lat="46.89052" lon="-0.97216">
        <ele>235</ele>
        <time>2022-09-02T15:14:58Z</time>
      </trkpt>
      <trkpt lat="46.89086" lon="-0.97193">
        <ele>234</ele>
        <time>2022-09-02T15:15:05Z</time>
      </trkpt>
      <trkpt lat="46.89148" lon="-0.97132">
        <ele>231</ele>
        <time>2022-09-02T15:15:18Z</time>
      </trkpt>
      <trkpt lat="46.89173" lon="-0.9711">
        <ele>230</ele>
        <time>2022-09-02T15:15:23Z</time>
      </trkpt>
      <trkpt lat="46.89212" lon="-0.97095">
        <ele>230</ele>
        <time>2022-09-02T15:15:31Z</time>
      </trkpt>
      <trkpt lat="46.8925" lon="-0.97096">
        <ele>230</ele>
        <time>2022-09-02T15:15:37Z</time>
      </trkpt>
      <trkpt lat="46.89292" lon="-0.97081">
        <ele>228</ele>
        <time>2022-09-02T15:15:45Z</time>
      </trkpt>
      <trkpt lat="46.89383" lon="-0.97036">
        <ele>227</ele>
        <time>2022-09-02T15:16:02Z</time>
      </trkpt>
      <trkpt lat="46.89411" lon="-0.97001">
        <ele>228</ele>
        <time>2022-09-02T15:16:09Z</time>
      </trkpt>
      <trkpt lat="46.89525" lon="-0.96816">
        <ele>223</ele>
        <time>2022-09-02T15:16:39Z</time>
      </trkpt>
      <trkpt lat="46.89632" lon="-0.96654">
        <ele>214</ele>
        <time>2022-09-02T15:17:06Z</time>
      </trkpt>
      <trkpt lat="46.89642" lon="-0.96646">
        <ele>214</ele>
        <time>2022-09-02T15:17:08Z</time>
      </trkpt>
      <trkpt lat="46.89705" lon="-0.96624">
        <ele>211</ele>
        <time>2022-09-02T15:17:20Z</time>
      </trkpt>
      <trkpt lat="46.89789" lon="-0.9658">
        <ele>207</ele>
        <time>2022-09-02T15:17:36Z</time>
      </trkpt>
      <trkpt lat="46.89813" lon="-0.96587">
        <ele>206</ele>
        <time>2022-09-02T15:17:40Z</time>
      </trkpt>
      <trkpt lat="46.89898" lon="-0.96671">
        <ele>201</ele>
        <time>2022-09-02T15:17:58Z</time>
      </trkpt>
      <trkpt lat="46.89972" lon="-0.96707">
        <ele>198</ele>
        <time>2022-09-02T15:18:12Z</time>
      </trkpt>
      <trkpt lat="46.90004" lon="-0.96728">
        <ele>196</ele>
        <time>2022-09-02T15:18:19Z</time>
      </trkpt>
      <trkpt lat="46.90043" lon="-0.96758">
        <ele>195</ele>
        <time>2022-09-02T15:18:26Z</time>
      </trkpt>
      <trkpt lat="46.90084" lon="-0.96799">
        <ele>195</ele>
        <time>2022-09-02T15:18:35Z</time>
      </trkpt>
      <trkpt lat="46.90146" lon="-0.96867">
        <ele>195</ele>
        <time>2022-09-02T15:18:49Z</time>
      </trkpt>
      <trkpt lat="46.90199" lon="-0.96916">
        <ele>196</ele>
        <time>2022-09-02T15:19:00Z</time>
      </trkpt>
      <trkpt lat="46.90226" lon="-0.96937">
        <ele>197</ele>
        <time>2022-09-02T15:19:06Z</time>
      </trkpt>
      <trkpt lat="46.90271" lon="-0.96967">
        <ele>199</ele>
        <time>2022-09-02T15:19:14Z</time>
      </trkpt>
      <trkpt lat="46.90288" lon="-0.96966">
        <ele>199</ele>
        <time>2022-09-02T15:19:17Z</time>
      </trkpt>
      <trkpt lat="46.90395" lon="-0.9693">
        <ele>199</ele>
        <time>2022-09-02T15:19:37Z</time>
      </trkpt>
      <trkpt lat="46.90502" lon="-0.96898">
        <ele>198</ele>
        <time>2022-09-02T15:19:56Z</time>
      </trkpt>
      <trkpt lat="46.90551" lon="-0.96863">
        <ele>198</ele>
        <time>2022-09-02T15:20:06Z</time>
      </trkpt>
      <trkpt lat="46.90597" lon="-0.96847">
        <ele>199</ele>
        <time>2022-09-02T15:20:14Z</time>
      </trkpt>
      <trkpt lat="46.90671" lon="-0.96831">
        <ele>203</ele>
        <time>2022-09-02T15:20:28Z</time>
      </trkpt>
      <trkpt lat="46.90702" lon="-0.96823">
        <ele>205</ele>
        <time>2022-09-02T15:20:33Z</time>
      </trkpt>
      <trkpt lat="46.90724" lon="-0.96809">
        <ele>206</ele>
        <time>2022-09-02T15:20:38Z</time>
      </trkpt>
      <trkpt lat="46.90837" lon="-0.96724">
        <ele>208</ele>
        <time>2022-09-02T15:21:00Z</time>
      </trkpt>
      <trkpt lat="46.90863" lon="-0.96709">
        <ele>208</ele>
        <time>2022-09-02T15:21:05Z</time>
      </trkpt>
      <trkpt lat="46.90884" lon="-0.96705">
        <ele>208</ele>
        <time>2022-09-02T15:21:09Z</time>
      </trkpt>
      <trkpt lat="46.9091" lon="-0.96708">
        <ele>208</ele>
        <time>2022-09-02T15:21:14Z</time>
      </trkpt>
      <trkpt lat="46.90942" lon="-0.96721">
        <ele>209</ele>
        <time>2022-09-02T15:21:20Z</time>
      </trkpt>
      <trkpt lat="46.90958" lon="-0.96732">
        <ele>210</ele>
        <time>2022-09-02T15:21:23Z</time>
      </trkpt>
      <trkpt lat="46.91018" lon="-0.96784">
        <ele>212</ele>
        <time>2022-09-02T15:21:35Z</time>
      </trkpt>
      <trkpt lat="46.91075" lon="-0.96829">
        <ele>214</ele>
        <time>2022-09-02T15:21:47Z</time>
      </trkpt>
      <trkpt lat="46.9111" lon="-0.96851">
        <ele>214</ele>
        <time>2022-09-02T15:21:53Z</time>
      </trkpt>
      <trkpt lat="46.91219" lon="-0.96909">
        <ele>214</ele>
        <time>2022-09-02T15:22:14Z</time>
      </trkpt>
      <trkpt lat="46.91247" lon="-0.96919">
        <ele>214</ele>
        <time>2022-09-02T15:22:19Z</time>
      </trkpt>
      <trkpt lat="46.91257" lon="-0.96919">
        <ele>214</ele>
        <time>2022-09-02T15:22:21Z</time>
      </trkpt>
      <trkpt lat="46.9139" lon="-0.96818">
        <ele>214</ele>
        <time>2022-09-02T15:22:48Z</time>
      </trkpt>
      <trkpt lat="46.91407" lon="-0.96809">
        <ele>214</ele>
        <time>2022-09-02T15:22:51Z</time>
      </trkpt>
      <trkpt lat="46.91418" lon="-0.96805">
        <ele>214</ele>
        <time>2022-09-02T15:22:53Z</time>
      </trkpt>
      <trkpt lat="46.91439" lon="-0.96805">
        <ele>215</ele>
        <time>2022-09-02T15:22:57Z</time>
      </trkpt>
      <trkpt lat="46.91464" lon="-0.96807">
        <ele>217</ele>
        <time>2022-09-02T15:23:01Z</time>
      </trkpt>
      <trkpt lat="46.91627" lon="-0.96827">
        <ele>223</ele>
        <time>2022-09-02T15:23:30Z</time>
      </trkpt>
      <trkpt lat="46.91693" lon="-0.9683">
        <ele>221</ele>
        <time>2022-09-02T15:23:42Z</time>
      </trkpt>
      <trkpt lat="46.9173" lon="-0.96833">
        <ele>216</ele>
        <time>2022-09-02T15:23:48Z</time>
      </trkpt>
      <trkpt lat="46.91791" lon="-0.9684">
        <ele>212</ele>
        <time>2022-09-02T15:23:59Z</time>
      </trkpt>
      <trkpt lat="46.91875" lon="-0.96835">
        <ele>208</ele>
        <time>2022-09-02T15:24:14Z</time>
      </trkpt>
      <trkpt lat="46.91898" lon="-0.96836">
        <ele>208</ele>
        <time>2022-09-02T15:24:18Z</time>
      </trkpt>
      <trkpt lat="46.91914" lon="-0.96842">
        <ele>207</ele>
        <time>2022-09-02T15:24:21Z</time>
      </trkpt>
      <trkpt lat="46.91959" lon="-0.96873">
        <ele>209</ele>
        <time>2022-09-02T15:24:30Z</time>
      </trkpt>
      <trkpt lat="46.92051" lon="-0.96765">
        <ele>208</ele>
        <time>2022-09-02T15:24:51Z</time>
      </trkpt>
      <trkpt lat="46.92077" lon="-0.96737">
        <ele>208</ele>
        <time>2022-09-02T15:24:57Z</time>
      </trkpt>
      <trkpt lat="46.92103" lon="-0.96694">
        <ele>207</ele>
        <time>2022-09-02T15:25:04Z</time>
      </trkpt>
      <trkpt lat="46.92141" lon="-0.96623">
        <ele>206</ele>
        <time>2022-09-02T15:25:15Z</time>
      </trkpt>
      <trkpt lat="46.92159" lon="-0.96597">
        <ele>206</ele>
        <time>2022-09-02T15:25:19Z</time>
      </trkpt>
      <trkpt lat="46.9218" lon="-0.96574">
        <ele>205</ele>
        <time>2022-09-02T15:25:24Z</time>
      </trkpt>
      <trkpt lat="46.92176" lon="-0.96541">
        <ele>206</ele>
        <time>2022-09-02T15:25:28Z</time>
      </trkpt>
      <trkpt lat="46.92186" lon="-0.96483">
        <ele>206</ele>
        <time>2022-09-02T15:25:35Z</time>
      </trkpt>
      <trkpt lat="46.92198" lon="-0.96437">
        <ele>204</ele>
        <time>2022-09-02T15:25:41Z</time>
      </trkpt>
      <trkpt lat="46.9221" lon="-0.9641">
        <ele>203</ele>
        <time>2022-09-02T15:25:45Z</time>
      </trkpt>
      <trkpt lat="46.92266" lon="-0.96314">
        <ele>201</ele>
        <time>2022-09-02T15:26:01Z</time>
      </trkpt>
      <trkpt lat="46.92271" lon="-0.96297">
        <ele>200</ele>
        <time>2022-09-02T15:26:03Z</time>
      </trkpt>
      <trkpt lat="46.92272" lon="-0.96286">
        <ele>200</ele>
        <time>2022-09-02T15:26:04Z</time>
      </trkpt>
      <trkpt lat="46.92278" lon="-0.96283">
        <ele>200</ele>
        <time>2022-09-02T15:26:05Z</time>
      </trkpt>
      <trkpt lat="46.92284" lon="-0.96273">
        <ele>199</ele>
        <time>2022-09-02T15:26:07Z</time>
      </trkpt>
      <trkpt lat="46.92334" lon="-0.96147">
        <ele>198</ele>
        <time>2022-09-02T15:26:25Z</time>
      </trkpt>
      <trkpt lat="46.92345" lon="-0.9611">
        <ele>198</ele>
        <time>2022-09-02T15:26:30Z</time>
      </trkpt>
      <trkpt lat="46.92352" lon="-0.96067">
        <ele>198</ele>
        <time>2022-09-02T15:26:35Z</time>
      </trkpt>
      <trkpt lat="46.92369" lon="-0.95883">
        <ele>202</ele>
        <time>2022-09-02T15:26:58Z</time>
      </trkpt>
      <trkpt lat="46.92373" lon="-0.95872">
        <ele>202</ele>
        <time>2022-09-02T15:26:59Z</time>
      </trkpt>
      <trkpt lat="46.92389" lon="-0.9587">
        <ele>204</ele>
        <time>2022-09-02T15:27:02Z</time>
      </trkpt>
      <trkpt lat="46.92422" lon="-0.95881">
        <ele>208</ele>
        <time>2022-09-02T15:27:08Z</time>
      </trkpt>
      <trkpt lat="46.92448" lon="-0.95884">
        <ele>210</ele>
        <time>2022-09-02T15:27:13Z</time>
      </trkpt>
      <trkpt lat="46.92473" lon="-0.95875">
        <ele>212</ele>
        <time>2022-09-02T15:27:17Z</time>
      </trkpt>
      <trkpt lat="46.92494" lon="-0.95857">
        <ele>213</ele>
        <time>2022-09-02T15:27:21Z</time>
      </trkpt>
      <trkpt lat="46.92601" lon="-0.95776">
        <ele>211</ele>
        <time>2022-09-02T15:27:43Z</time>
      </trkpt>
      <trkpt lat="46.92645" lon="-0.95753">
        <ele>207</ele>
        <time>2022-09-02T15:27:51Z</time>
      </trkpt>
      <trkpt lat="46.92668" lon="-0.95744">
        <ele>206</ele>
        <time>2022-09-02T15:27:55Z</time>
      </trkpt>
      <trkpt lat="46.92686" lon="-0.95739">
        <ele>205</ele>
        <time>2022-09-02T15:27:59Z</time>
      </trkpt>
      <trkpt lat="46.92799" lon="-0.95732">
        <ele>203</ele>
        <time>2022-09-02T15:28:19Z</time>
      </trkpt>
      <trkpt lat="46.92812" lon="-0.95733">
        <ele>203</ele>
        <time>2022-09-02T15:28:21Z</time>
      </trkpt>
      <trkpt lat="46.92867" lon="-0.95761">
        <ele>205</ele>
        <time>2022-09-02T15:28:31Z</time>
      </trkpt>
      <trkpt lat="46.92887" lon="-0.95768">
        <ele>205</ele>
        <time>2022-09-02T15:28:35Z</time>
      </trkpt>
      <trkpt lat="46.9291" lon="-0.95773">
        <ele>205</ele>
        <time>2022-09-02T15:28:39Z</time>
      </trkpt>
      <trkpt lat="46.92954" lon="-0.95774">
        <ele>206</ele>
        <time>2022-09-02T15:28:47Z</time>
      </trkpt>
      <trkpt lat="46.92993" lon="-0.95778">
        <ele>207</ele>
        <time>2022-09-02T15:28:54Z</time>
      </trkpt>
      <trkpt lat="46.93056" lon="-0.95789">
        <ele>207</ele>
        <time>2022-09-02T15:29:05Z</time>
      </trkpt>
      <trkpt lat="46.93114" lon="-0.95794">
        <ele>207</ele>
        <time>2022-09-02T15:29:16Z</time>
      </trkpt>
      <trkpt lat="46.93189" lon="-0.95807">
        <ele>207</ele>
        <time>2022-09-02T15:29:29Z</time>
      </trkpt>
      <trkpt lat="46.93208" lon="-0.95808">
        <ele>207</ele>
        <time>2022-09-02T15:29:33Z</time>
      </trkpt>
      <trkpt lat="46.93338" lon="-0.95788">
        <ele>201</ele>
        <time>2022-09-02T15:29:56Z</time>
      </trkpt>
      <trkpt lat="46.9336" lon="-0.95792">
        <ele>201</ele>
        <time>2022-09-02T15:30:00Z</time>
      </trkpt>
      <trkpt lat="46.93387" lon="-0.958">
        <ele>201</ele>
        <time>2022-09-02T15:30:05Z</time>
      </trkpt>
      <trkpt lat="46.93434" lon="-0.95807">
        <ele>201</ele>
        <time>2022-09-02T15:30:13Z</time>
      </trkpt>
      <trkpt lat="46.93455" lon="-0.95805">
        <ele>201</ele>
        <time>2022-09-02T15:30:17Z</time>
      </trkpt>
      <trkpt lat="46.93522" lon="-0.9579">
        <ele>200</ele>
        <time>2022-09-02T15:30:29Z</time>
      </trkpt>
      <trkpt lat="46.93596" lon="-0.95753">
        <ele>196</ele>
        <time>2022-09-02T15:30:43Z</time>
      </trkpt>
      <trkpt lat="46.93642" lon="-0.95738">
        <ele>194</ele>
        <time>2022-09-02T15:30:51Z</time>
      </trkpt>
      <trkpt lat="46.93739" lon="-0.95715">
        <ele>191</ele>
        <time>2022-09-02T15:31:09Z</time>
      </trkpt>
      <trkpt lat="46.93788" lon="-0.95707">
        <ele>191</ele>
        <time>2022-09-02T15:31:17Z</time>
      </trkpt>
      <trkpt lat="46.93936" lon="-0.95707">
        <ele>189</ele>
        <time>2022-09-02T15:31:44Z</time>
      </trkpt>
      <trkpt lat="46.94027" lon="-0.9571">
        <ele>186</ele>
        <time>2022-09-02T15:32:00Z</time>
      </trkpt>
      <trkpt lat="46.94087" lon="-0.95715">
        <ele>184</ele>
        <time>2022-09-02T15:32:11Z</time>
      </trkpt>
      <trkpt lat="46.94146" lon="-0.95698">
        <ele>184</ele>
        <time>2022-09-02T15:32:21Z</time>
      </trkpt>
      <trkpt lat="46.94154" lon="-0.95698">
        <ele>184</ele>
        <time>2022-09-02T15:32:23Z</time>
      </trkpt>
      <trkpt lat="46.94179" lon="-0.95696">
        <ele>184</ele>
        <time>2022-09-02T15:32:27Z</time>
      </trkpt>
      <trkpt lat="46.9423" lon="-0.95701">
        <ele>184</ele>
        <time>2022-09-02T15:32:36Z</time>
      </trkpt>
      <trkpt lat="46.94298" lon="-0.9572">
        <ele>183</ele>
        <time>2022-09-02T15:32:49Z</time>
      </trkpt>
      <trkpt lat="46.94309" lon="-0.95718">
        <ele>183</ele>
        <time>2022-09-02T15:32:51Z</time>
      </trkpt>
      <trkpt lat="46.9432" lon="-0.95711">
        <ele>183</ele>
        <time>2022-09-02T15:32:53Z</time>
      </trkpt>
      <trkpt lat="46.94333" lon="-0.95699">
        <ele>183</ele>
        <time>2022-09-02T15:32:55Z</time>
      </trkpt>
      <trkpt lat="46.94341" lon="-0.95684">
        <ele>183</ele>
        <time>2022-09-02T15:32:58Z</time>
      </trkpt>
      <trkpt lat="46.94347" lon="-0.95669">
        <ele>182</ele>
        <time>2022-09-02T15:33:00Z</time>
      </trkpt>
      <trkpt lat="46.9435" lon="-0.95639">
        <ele>182</ele>
        <time>2022-09-02T15:33:04Z</time>
      </trkpt>
      <trkpt lat="46.94352" lon="-0.95571">
        <ele>180</ele>
        <time>2022-09-02T15:33:12Z</time>
      </trkpt>
      <trkpt lat="46.94354" lon="-0.95548">
        <ele>179</ele>
        <time>2022-09-02T15:33:15Z</time>
      </trkpt>
      <trkpt lat="46.94359" lon="-0.95517">
        <ele>178</ele>
        <time>2022-09-02T15:33:19Z</time>
      </trkpt>
      <trkpt lat="46.94372" lon="-0.95465">
        <ele>178</ele>
        <time>2022-09-02T15:33:25Z</time>
      </trkpt>
      <trkpt lat="46.94384" lon="-0.95424">
        <ele>178</ele>
        <time>2022-09-02T15:33:31Z</time>
      </trkpt>
      <trkpt lat="46.94389" lon="-0.95415">
        <ele>178</ele>
        <time>2022-09-02T15:33:32Z</time>
      </trkpt>
      <trkpt lat="46.94411" lon="-0.95392">
        <ele>178</ele>
        <time>2022-09-02T15:33:37Z</time>
      </trkpt>
      <trkpt lat="46.94436" lon="-0.9544">
        <ele>176</ele>
        <time>2022-09-02T15:33:44Z</time>
      </trkpt>
      <trkpt lat="46.94464" lon="-0.95488">
        <ele>175</ele>
        <time>2022-09-02T15:33:52Z</time>
      </trkpt>
      <trkpt lat="46.94519" lon="-0.95582">
        <ele>174</ele>
        <time>2022-09-02T15:34:07Z</time>
      </trkpt>
      <trkpt lat="46.94559" lon="-0.95638">
        <ele>174</ele>
        <time>2022-09-02T15:34:17Z</time>
      </trkpt>
      <trkpt lat="46.94712" lon="-0.95822">
        <ele>176</ele>
        <time>2022-09-02T15:34:52Z</time>
      </trkpt>
      <trkpt lat="46.94832" lon="-0.95942">
        <ele>170</ele>
        <time>2022-09-02T15:35:18Z</time>
      </trkpt>
      <trkpt lat="46.94843" lon="-0.95923">
        <ele>170</ele>
        <time>2022-09-02T15:35:21Z</time>
      </trkpt>
      <trkpt lat="46.9487" lon="-0.95887">
        <ele>171</ele>
        <time>2022-09-02T15:35:27Z</time>
      </trkpt>
      <trkpt lat="46.94883" lon="-0.95866">
        <ele>171</ele>
        <time>2022-09-02T15:35:31Z</time>
      </trkpt>
      <trkpt lat="46.94895" lon="-0.95844">
        <ele>170</ele>
        <time>2022-09-02T15:35:34Z</time>
      </trkpt>
      <trkpt lat="46.94903" lon="-0.95821">
        <ele>170</ele>
        <time>2022-09-02T15:35:37Z</time>
      </trkpt>
      <trkpt lat="46.94911" lon="-0.95792">
        <ele>169</ele>
        <time>2022-09-02T15:35:41Z</time>
      </trkpt>
      <trkpt lat="46.94918" lon="-0.95748">
        <ele>168</ele>
        <time>2022-09-02T15:35:47Z</time>
      </trkpt>
      <trkpt lat="46.94925" lon="-0.957">
        <ele>168</ele>
        <time>2022-09-02T15:35:53Z</time>
      </trkpt>
      <trkpt lat="46.94931" lon="-0.9563">
        <ele>168</ele>
        <time>2022-09-02T15:36:01Z</time>
      </trkpt>
      <trkpt lat="46.94934" lon="-0.95615">
        <ele>167</ele>
        <time>2022-09-02T15:36:03Z</time>
      </trkpt>
      <trkpt lat="46.94942" lon="-0.95587">
        <ele>168</ele>
        <time>2022-09-02T15:36:07Z</time>
      </trkpt>
      <trkpt lat="46.9495" lon="-0.9557">
        <ele>168</ele>
        <time>2022-09-02T15:36:09Z</time>
      </trkpt>
      <trkpt lat="46.94958" lon="-0.95557">
        <ele>168</ele>
        <time>2022-09-02T15:36:11Z</time>
      </trkpt>
      <trkpt lat="46.95045" lon="-0.95448">
        <ele>169</ele>
        <time>2022-09-02T15:36:32Z</time>
      </trkpt>
      <trkpt lat="46.9512" lon="-0.95345">
        <ele>165</ele>
        <time>2022-09-02T15:36:50Z</time>
      </trkpt>
      <trkpt lat="46.95186" lon="-0.95266">
        <ele>166</ele>
        <time>2022-09-02T15:37:05Z</time>
      </trkpt>
      <trkpt lat="46.95209" lon="-0.95224">
        <ele>166</ele>
        <time>2022-09-02T15:37:12Z</time>
      </trkpt>
      <trkpt lat="46.95216" lon="-0.95193">
        <ele>165</ele>
        <time>2022-09-02T15:37:16Z</time>
      </trkpt>
      <trkpt lat="46.95214" lon="-0.9513">
        <ele>164</ele>
        <time>2022-09-02T15:37:23Z</time>
      </trkpt>
      <trkpt lat="46.95222" lon="-0.95131">
        <ele>164</ele>
        <time>2022-09-02T15:37:25Z</time>
      </trkpt>
      <trkpt lat="46.95263" lon="-0.95128">
        <ele>164</ele>
        <time>2022-09-02T15:37:32Z</time>
      </trkpt>
      <trkpt lat="46.95334" lon="-0.95129">
        <ele>162</ele>
        <time>2022-09-02T15:37:45Z</time>
      </trkpt>
      <trkpt lat="46.9538" lon="-0.95134">
        <ele>160</ele>
        <time>2022-09-02T15:37:53Z</time>
      </trkpt>
      <trkpt lat="46.95388" lon="-0.95132">
        <ele>160</ele>
        <time>2022-09-02T15:37:54Z</time>
      </trkpt>
      <trkpt lat="46.95396" lon="-0.95125">
        <ele>160</ele>
        <time>2022-09-02T15:37:56Z</time>
      </trkpt>
      <trkpt lat="46.95398" lon="-0.95109">
        <ele>160</ele>
        <time>2022-09-02T15:37:58Z</time>
      </trkpt>
      <trkpt lat="46.95396" lon="-0.95077">
        <ele>160</ele>
        <time>2022-09-02T15:38:02Z</time>
      </trkpt>
      <trkpt lat="46.95396" lon="-0.95062">
        <ele>160</ele>
        <time>2022-09-02T15:38:04Z</time>
      </trkpt>
      <trkpt lat="46.95405" lon="-0.95045">
        <ele>159</ele>
        <time>2022-09-02T15:38:06Z</time>
      </trkpt>
      <trkpt lat="46.95466" lon="-0.94981">
        <ele>156</ele>
        <time>2022-09-02T15:38:20Z</time>
      </trkpt>
      <trkpt lat="46.95472" lon="-0.94972">
        <ele>156</ele>
        <time>2022-09-02T15:38:21Z</time>
      </trkpt>
      <trkpt lat="46.9551" lon="-0.94971">
        <ele>154</ele>
        <time>2022-09-02T15:38:28Z</time>
      </trkpt>
      <trkpt lat="46.95551" lon="-0.94961">
        <ele>150</ele>
        <time>2022-09-02T15:38:35Z</time>
      </trkpt>
      <trkpt lat="46.95625" lon="-0.94924">
        <ele>146</ele>
        <time>2022-09-02T15:38:49Z</time>
      </trkpt>
      <trkpt lat="46.95687" lon="-0.94881">
        <ele>143</ele>
        <time>2022-09-02T15:39:02Z</time>
      </trkpt>
      <trkpt lat="46.95761" lon="-0.94802">
        <ele>141</ele>
        <time>2022-09-02T15:39:18Z</time>
      </trkpt>
      <trkpt lat="46.9577" lon="-0.94799">
        <ele>141</ele>
        <time>2022-09-02T15:39:19Z</time>
      </trkpt>
      <trkpt lat="46.95776" lon="-0.94802">
        <ele>140</ele>
        <time>2022-09-02T15:39:21Z</time>
      </trkpt>
      <trkpt lat="46.95782" lon="-0.94813">
        <ele>140</ele>
        <time>2022-09-02T15:39:22Z</time>
      </trkpt>
      <trkpt lat="46.9579" lon="-0.94818">
        <ele>140</ele>
        <time>2022-09-02T15:39:24Z</time>
      </trkpt>
      <trkpt lat="46.95799" lon="-0.94818">
        <ele>139</ele>
        <time>2022-09-02T15:39:25Z</time>
      </trkpt>
      <trkpt lat="46.95809" lon="-0.94828">
        <ele>138</ele>
        <time>2022-09-02T15:39:28Z</time>
      </trkpt>
      <trkpt lat="46.95837" lon="-0.94829">
        <ele>137</ele>
        <time>2022-09-02T15:39:33Z</time>
      </trkpt>
      <trkpt lat="46.95854" lon="-0.94825">
        <ele>137</ele>
        <time>2022-09-02T15:39:36Z</time>
      </trkpt>
      <trkpt lat="46.95891" lon="-0.94792">
        <ele>139</ele>
        <time>2022-09-02T15:39:43Z</time>
      </trkpt>
      <trkpt lat="46.95923" lon="-0.94742">
        <ele>141</ele>
        <time>2022-09-02T15:39:52Z</time>
      </trkpt>
      <trkpt lat="46.95961" lon="-0.94717">
        <ele>141</ele>
        <time>2022-09-02T15:39:59Z</time>
      </trkpt>
      <trkpt lat="46.95974" lon="-0.947">
        <ele>141</ele>
        <time>2022-09-02T15:40:02Z</time>
      </trkpt>
      <trkpt lat="46.95987" lon="-0.94693">
        <ele>141</ele>
        <time>2022-09-02T15:40:05Z</time>
      </trkpt>
      <trkpt lat="46.96014" lon="-0.94691">
        <ele>141</ele>
        <time>2022-09-02T15:40:09Z</time>
      </trkpt>
      <trkpt lat="46.96047" lon="-0.94669">
        <ele>140</ele>
        <time>2022-09-02T15:40:16Z</time>
      </trkpt>
      <trkpt lat="46.96109" lon="-0.94634">
        <ele>139</ele>
        <time>2022-09-02T15:40:28Z</time>
      </trkpt>
      <trkpt lat="46.96151" lon="-0.94907">
        <ele>129</ele>
        <time>2022-09-02T15:41:02Z</time>
      </trkpt>
      <trkpt lat="46.9616" lon="-0.94947">
        <ele>129</ele>
        <time>2022-09-02T15:41:07Z</time>
      </trkpt>
      <trkpt lat="46.96168" lon="-0.94966">
        <ele>129</ele>
        <time>2022-09-02T15:41:10Z</time>
      </trkpt>
      <trkpt lat="46.96177" lon="-0.94981">
        <ele>129</ele>
        <time>2022-09-02T15:41:12Z</time>
      </trkpt>
      <trkpt lat="46.96263" lon="-0.95097">
        <ele>124</ele>
        <time>2022-09-02T15:41:33Z</time>
      </trkpt>
      <trkpt lat="46.96294" lon="-0.95141">
        <ele>124</ele>
        <time>2022-09-02T15:41:40Z</time>
      </trkpt>
      <trkpt lat="46.96308" lon="-0.9517">
        <ele>124</ele>
        <time>2022-09-02T15:41:45Z</time>
      </trkpt>
      <trkpt lat="46.96316" lon="-0.95191">
        <ele>124</ele>
        <time>2022-09-02T15:41:48Z</time>
      </trkpt>
      <trkpt lat="46.96372" lon="-0.9543">
        <ele>132</ele>
        <time>2022-09-02T15:42:18Z</time>
      </trkpt>
      <trkpt lat="46.96377" lon="-0.95462">
        <ele>133</ele>
        <time>2022-09-02T15:42:22Z</time>
      </trkpt>
      <trkpt lat="46.96376" lon="-0.95488">
        <ele>134</ele>
        <time>2022-09-02T15:42:26Z</time>
      </trkpt>
      <trkpt lat="46.96372" lon="-0.95511">
        <ele>134</ele>
        <time>2022-09-02T15:42:28Z</time>
      </trkpt>
      <trkpt lat="46.96364" lon="-0.95534">
        <ele>135</ele>
        <time>2022-09-02T15:42:32Z</time>
      </trkpt>
      <trkpt lat="46.96345" lon="-0.9558">
        <ele>137</ele>
        <time>2022-09-02T15:42:38Z</time>
      </trkpt>
      <trkpt lat="46.9635" lon="-0.95588">
        <ele>137</ele>
        <time>2022-09-02T15:42:39Z</time>
      </trkpt>
      <trkpt lat="46.96358" lon="-0.95614">
        <ele>138</ele>
        <time>2022-09-02T15:42:43Z</time>
      </trkpt>
      <trkpt lat="46.96366" lon="-0.95632">
        <ele>139</ele>
        <time>2022-09-02T15:42:45Z</time>
      </trkpt>
      <trkpt lat="46.96375" lon="-0.95642">
        <ele>139</ele>
        <time>2022-09-02T15:42:47Z</time>
      </trkpt>
      <trkpt lat="46.96386" lon="-0.95648">
        <ele>139</ele>
        <time>2022-09-02T15:42:50Z</time>
      </trkpt>
      <trkpt lat="46.9642" lon="-0.95659">
        <ele>139</ele>
        <time>2022-09-02T15:42:56Z</time>
      </trkpt>
      <trkpt lat="46.96455" lon="-0.95675">
        <ele>138</ele>
        <time>2022-09-02T15:43:02Z</time>
      </trkpt>
      <trkpt lat="46.96584" lon="-0.95765">
        <ele>136</ele>
        <time>2022-09-02T15:43:28Z</time>
      </trkpt>
      <trkpt lat="46.96676" lon="-0.95814">
        <ele>135</ele>
        <time>2022-09-02T15:43:45Z</time>
      </trkpt>
      <trkpt lat="46.96686" lon="-0.95824">
        <ele>135</ele>
        <time>2022-09-02T15:43:47Z</time>
      </trkpt>
      <trkpt lat="46.96726" lon="-0.95829">
        <ele>136</ele>
        <time>2022-09-02T15:43:54Z</time>
      </trkpt>
      <trkpt lat="46.96744" lon="-0.95833">
        <ele>137</ele>
        <time>2022-09-02T15:43:58Z</time>
      </trkpt>
      <trkpt lat="46.96785" lon="-0.95856">
        <ele>137</ele>
        <time>2022-09-02T15:44:05Z</time>
      </trkpt>
      <trkpt lat="46.96855" lon="-0.95868">
        <ele>138</ele>
        <time>2022-09-02T15:44:18Z</time>
      </trkpt>
      <trkpt lat="46.96912" lon="-0.95885">
        <ele>138</ele>
        <time>2022-09-02T15:44:28Z</time>
      </trkpt>
      <trkpt lat="46.9693" lon="-0.95896">
        <ele>138</ele>
        <time>2022-09-02T15:44:32Z</time>
      </trkpt>
      <trkpt lat="46.96952" lon="-0.95912">
        <ele>137</ele>
        <time>2022-09-02T15:44:36Z</time>
      </trkpt>
      <trkpt lat="46.96969" lon="-0.95928">
        <ele>136</ele>
        <time>2022-09-02T15:44:40Z</time>
      </trkpt>
      <trkpt lat="46.97043" lon="-0.95988">
        <ele>134</ele>
        <time>2022-09-02T15:44:55Z</time>
      </trkpt>
      <trkpt lat="46.97143" lon="-0.96052">
        <ele>129</ele>
        <time>2022-09-02T15:45:14Z</time>
      </trkpt>
      <trkpt lat="46.9716" lon="-0.96065">
        <ele>127</ele>
        <time>2022-09-02T15:45:18Z</time>
      </trkpt>
      <trkpt lat="46.9718" lon="-0.96084">
        <ele>126</ele>
        <time>2022-09-02T15:45:22Z</time>
      </trkpt>
      <trkpt lat="46.97189" lon="-0.96095">
        <ele>125</ele>
        <time>2022-09-02T15:45:24Z</time>
      </trkpt>
      <trkpt lat="46.97199" lon="-0.96124">
        <ele>124</ele>
        <time>2022-09-02T15:45:28Z</time>
      </trkpt>
      <trkpt lat="46.97206" lon="-0.96189">
        <ele>122</ele>
        <time>2022-09-02T15:45:36Z</time>
      </trkpt>
      <trkpt lat="46.97214" lon="-0.96248">
        <ele>120</ele>
        <time>2022-09-02T15:45:43Z</time>
      </trkpt>
      <trkpt lat="46.97217" lon="-0.96284">
        <ele>121</ele>
        <time>2022-09-02T15:45:48Z</time>
      </trkpt>
      <trkpt lat="46.97214" lon="-0.96352">
        <ele>123</ele>
        <time>2022-09-02T15:45:56Z</time>
      </trkpt>
      <trkpt lat="46.97216" lon="-0.96369">
        <ele>124</ele>
        <time>2022-09-02T15:45:58Z</time>
      </trkpt>
      <trkpt lat="46.9722" lon="-0.96384">
        <ele>125</ele>
        <time>2022-09-02T15:46:00Z</time>
      </trkpt>
      <trkpt lat="46.9723" lon="-0.96405">
        <ele>126</ele>
        <time>2022-09-02T15:46:03Z</time>
      </trkpt>
      <trkpt lat="46.97245" lon="-0.96418">
        <ele>127</ele>
        <time>2022-09-02T15:46:06Z</time>
      </trkpt>
      <trkpt lat="46.97282" lon="-0.96422">
        <ele>127</ele>
        <time>2022-09-02T15:46:13Z</time>
      </trkpt>
      <trkpt lat="46.97311" lon="-0.96428">
        <ele>128</ele>
        <time>2022-09-02T15:46:18Z</time>
      </trkpt>
      <trkpt lat="46.97339" lon="-0.96456">
        <ele>129</ele>
        <time>2022-09-02T15:46:24Z</time>
      </trkpt>
      <trkpt lat="46.97366" lon="-0.96508">
        <ele>131</ele>
        <time>2022-09-02T15:46:32Z</time>
      </trkpt>
      <trkpt lat="46.97397" lon="-0.96547">
        <ele>131</ele>
        <time>2022-09-02T15:46:39Z</time>
      </trkpt>
      <trkpt lat="46.97411" lon="-0.96568">
        <ele>131</ele>
        <time>2022-09-02T15:46:43Z</time>
      </trkpt>
      <trkpt lat="46.97417" lon="-0.96585">
        <ele>131</ele>
        <time>2022-09-02T15:46:45Z</time>
      </trkpt>
      <trkpt lat="46.97416" lon="-0.96603">
        <ele>131</ele>
        <time>2022-09-02T15:46:47Z</time>
      </trkpt>
      <trkpt lat="46.9741" lon="-0.96615">
        <ele>130</ele>
        <time>2022-09-02T15:46:49Z</time>
      </trkpt>
      <trkpt lat="46.9739" lon="-0.96625">
        <ele>130</ele>
        <time>2022-09-02T15:46:53Z</time>
      </trkpt>
      <trkpt lat="46.9738" lon="-0.96637">
        <ele>130</ele>
        <time>2022-09-02T15:46:55Z</time>
      </trkpt>
      <trkpt lat="46.97373" lon="-0.96648">
        <ele>129</ele>
        <time>2022-09-02T15:46:57Z</time>
      </trkpt>
      <trkpt lat="46.97369" lon="-0.96663">
        <ele>129</ele>
        <time>2022-09-02T15:46:59Z</time>
      </trkpt>
      <trkpt lat="46.97392" lon="-0.96674">
        <ele>129</ele>
        <time>2022-09-02T15:47:03Z</time>
      </trkpt>
      <trkpt lat="46.97438" lon="-0.96687">
        <ele>129</ele>
        <time>2022-09-02T15:47:12Z</time>
      </trkpt>
      <trkpt lat="46.9747" lon="-0.96697">
        <ele>129</ele>
        <time>2022-09-02T15:47:17Z</time>
      </trkpt>
      <trkpt lat="46.97495" lon="-0.9671">
        <ele>129</ele>
        <time>2022-09-02T15:47:22Z</time>
      </trkpt>
      <trkpt lat="46.97508" lon="-0.96712">
        <ele>129</ele>
        <time>2022-09-02T15:47:24Z</time>
      </trkpt>
      <trkpt lat="46.97513" lon="-0.96709">
        <ele>129</ele>
        <time>2022-09-02T15:47:25Z</time>
      </trkpt>
      <trkpt lat="46.9752" lon="-0.96709">
        <ele>129</ele>
        <time>2022-09-02T15:47:27Z</time>
      </trkpt>
      <trkpt lat="46.97525" lon="-0.96711">
        <ele>129</ele>
        <time>2022-09-02T15:47:28Z</time>
      </trkpt>
      <trkpt lat="46.97533" lon="-0.96721">
        <ele>129</ele>
        <time>2022-09-02T15:47:29Z</time>
      </trkpt>
      <trkpt lat="46.97544" lon="-0.96723">
        <ele>129</ele>
        <time>2022-09-02T15:47:31Z</time>
      </trkpt>
      <trkpt lat="46.97557" lon="-0.96716">
        <ele>129</ele>
        <time>2022-09-02T15:47:34Z</time>
      </trkpt>
      <trkpt lat="46.97575" lon="-0.96686">
        <ele>129</ele>
        <time>2022-09-02T15:47:39Z</time>
      </trkpt>
      <trkpt lat="46.97583" lon="-0.96677">
        <ele>129</ele>
        <time>2022-09-02T15:47:41Z</time>
      </trkpt>
      <trkpt lat="46.97622" lon="-0.96651">
        <ele>128</ele>
        <time>2022-09-02T15:47:48Z</time>
      </trkpt>
      <trkpt lat="46.97805" lon="-0.96554">
        <ele>129</ele>
        <time>2022-09-02T15:48:23Z</time>
      </trkpt>
      <trkpt lat="46.98214" lon="-0.96327">
        <ele>112</ele>
        <time>2022-09-02T15:49:41Z</time>
      </trkpt>
      <trkpt lat="46.98409" lon="-0.96219">
        <ele>110</ele>
        <time>2022-09-02T15:50:18Z</time>
      </trkpt>
      <trkpt lat="46.98453" lon="-0.96184">
        <ele>108</ele>
        <time>2022-09-02T15:50:27Z</time>
      </trkpt>
      <trkpt lat="46.98467" lon="-0.96165">
        <ele>106</ele>
        <time>2022-09-02T15:50:30Z</time>
      </trkpt>
      <trkpt lat="46.98472" lon="-0.96148">
        <ele>105</ele>
        <time>2022-09-02T15:50:32Z</time>
      </trkpt>
      <trkpt lat="46.98473" lon="-0.96135">
        <ele>104</ele>
        <time>2022-09-02T15:50:34Z</time>
      </trkpt>
      <trkpt lat="46.98466" lon="-0.96089">
        <ele>103</ele>
        <time>2022-09-02T15:50:40Z</time>
      </trkpt>
      <trkpt lat="46.98469" lon="-0.96064">
        <ele>100</ele>
        <time>2022-09-02T15:50:43Z</time>
      </trkpt>
      <trkpt lat="46.98475" lon="-0.96048">
        <ele>97</ele>
        <time>2022-09-02T15:50:45Z</time>
      </trkpt>
      <trkpt lat="46.98487" lon="-0.96034">
        <ele>93</ele>
        <time>2022-09-02T15:50:48Z</time>
      </trkpt>
      <trkpt lat="46.98503" lon="-0.96028">
        <ele>90</ele>
        <time>2022-09-02T15:50:50Z</time>
      </trkpt>
      <trkpt lat="46.9852" lon="-0.96031">
        <ele>88</ele>
        <time>2022-09-02T15:50:54Z</time>
      </trkpt>
      <trkpt lat="46.98526" lon="-0.96035">
        <ele>88</ele>
        <time>2022-09-02T15:50:55Z</time>
      </trkpt>
      <trkpt lat="46.98578" lon="-0.96086">
        <ele>92</ele>
        <time>2022-09-02T15:51:06Z</time>
      </trkpt>
      <trkpt lat="46.98596" lon="-0.96095">
        <ele>93</ele>
        <time>2022-09-02T15:51:09Z</time>
      </trkpt>
      <trkpt lat="46.98628" lon="-0.96096">
        <ele>91</ele>
        <time>2022-09-02T15:51:15Z</time>
      </trkpt>
      <trkpt lat="46.9866" lon="-0.9609">
        <ele>88</ele>
        <time>2022-09-02T15:51:21Z</time>
      </trkpt>
      <trkpt lat="46.98673" lon="-0.96082">
        <ele>86</ele>
        <time>2022-09-02T15:51:23Z</time>
      </trkpt>
      <trkpt lat="46.98678" lon="-0.96075">
        <ele>85</ele>
        <time>2022-09-02T15:51:24Z</time>
      </trkpt>
      <trkpt lat="46.98682" lon="-0.96062">
        <ele>83</ele>
        <time>2022-09-02T15:51:26Z</time>
      </trkpt>
      <trkpt lat="46.98683" lon="-0.96048">
        <ele>80</ele>
        <time>2022-09-02T15:51:28Z</time>
      </trkpt>
      <trkpt lat="46.98672" lon="-0.95922">
        <ele>71</ele>
        <time>2022-09-02T15:51:43Z</time>
      </trkpt>
      <trkpt lat="46.98673" lon="-0.95901">
        <ele>73</ele>
        <time>2022-09-02T15:51:46Z</time>
      </trkpt>
      <trkpt lat="46.98676" lon="-0.95887">
        <ele>75</ele>
        <time>2022-09-02T15:51:48Z</time>
      </trkpt>
      <trkpt lat="46.98678" lon="-0.95879">
        <ele>76</ele>
        <time>2022-09-02T15:51:49Z</time>
      </trkpt>
      <trkpt lat="46.98688" lon="-0.95864">
        <ele>77</ele>
        <time>2022-09-02T15:51:51Z</time>
      </trkpt>
      <trkpt lat="46.98771" lon="-0.95771">
        <ele>81</ele>
        <time>2022-09-02T15:52:10Z</time>
      </trkpt>
      <trkpt lat="46.98794" lon="-0.95734">
        <ele>82</ele>
        <time>2022-09-02T15:52:16Z</time>
      </trkpt>
      <trkpt lat="46.98822" lon="-0.95676">
        <ele>85</ele>
        <time>2022-09-02T15:52:24Z</time>
      </trkpt>
      <trkpt lat="46.9883" lon="-0.95662">
        <ele>85</ele>
        <time>2022-09-02T15:52:27Z</time>
      </trkpt>
      <trkpt lat="46.9888" lon="-0.95607">
        <ele>85</ele>
        <time>2022-09-02T15:52:38Z</time>
      </trkpt>
      <trkpt lat="46.98891" lon="-0.95586">
        <ele>86</ele>
        <time>2022-09-02T15:52:41Z</time>
      </trkpt>
      <trkpt lat="46.989" lon="-0.95557">
        <ele>88</ele>
        <time>2022-09-02T15:52:45Z</time>
      </trkpt>
      <trkpt lat="46.98905" lon="-0.95524">
        <ele>92</ele>
        <time>2022-09-02T15:52:49Z</time>
      </trkpt>
      <trkpt lat="46.9891" lon="-0.95503">
        <ele>94</ele>
        <time>2022-09-02T15:52:52Z</time>
      </trkpt>
      <trkpt lat="46.98914" lon="-0.95491">
        <ele>95</ele>
        <time>2022-09-02T15:52:53Z</time>
      </trkpt>
      <trkpt lat="46.98923" lon="-0.95478">
        <ele>96</ele>
        <time>2022-09-02T15:52:56Z</time>
      </trkpt>
      <trkpt lat="46.98942" lon="-0.95463">
        <ele>98</ele>
        <time>2022-09-02T15:52:59Z</time>
      </trkpt>
      <trkpt lat="46.99" lon="-0.95436">
        <ele>102</ele>
        <time>2022-09-02T15:53:10Z</time>
      </trkpt>
      <trkpt lat="46.99066" lon="-0.95417">
        <ele>108</ele>
        <time>2022-09-02T15:53:22Z</time>
      </trkpt>
      <trkpt lat="46.99209" lon="-0.95297">
        <ele>116</ele>
        <time>2022-09-02T15:53:52Z</time>
      </trkpt>
      <trkpt lat="46.99248" lon="-0.95237">
        <ele>117</ele>
        <time>2022-09-02T15:54:02Z</time>
      </trkpt>
      <trkpt lat="46.99262" lon="-0.95221">
        <ele>117</ele>
        <time>2022-09-02T15:54:05Z</time>
      </trkpt>
      <trkpt lat="46.9929" lon="-0.95195">
        <ele>116</ele>
        <time>2022-09-02T15:54:11Z</time>
      </trkpt>
      <trkpt lat="46.99292" lon="-0.95188">
        <ele>116</ele>
        <time>2022-09-02T15:54:12Z</time>
      </trkpt>
      <trkpt lat="46.99295" lon="-0.95132">
        <ele>116</ele>
        <time>2022-09-02T15:54:18Z</time>
      </trkpt>
      <trkpt lat="46.99298" lon="-0.95114">
        <ele>117</ele>
        <time>2022-09-02T15:54:21Z</time>
      </trkpt>
      <trkpt lat="46.99293" lon="-0.95106">
        <ele>117</ele>
        <time>2022-09-02T15:54:22Z</time>
      </trkpt>
      <trkpt lat="46.99294" lon="-0.95095">
        <ele>117</ele>
        <time>2022-09-02T15:54:23Z</time>
      </trkpt>
      <trkpt lat="46.99298" lon="-0.95091">
        <ele>117</ele>
        <time>2022-09-02T15:54:24Z</time>
      </trkpt>
      <trkpt lat="46.99302" lon="-0.9509">
        <ele>117</ele>
        <time>2022-09-02T15:54:25Z</time>
      </trkpt>
      <trkpt lat="46.99307" lon="-0.95093">
        <ele>117</ele>
        <time>2022-09-02T15:54:26Z</time>
      </trkpt>
      <trkpt lat="46.99382" lon="-0.9497">
        <ele>115</ele>
        <time>2022-09-02T15:54:46Z</time>
      </trkpt>
      <trkpt lat="46.99393" lon="-0.94947">
        <ele>114</ele>
        <time>2022-09-02T15:54:49Z</time>
      </trkpt>
      <trkpt lat="46.99603" lon="-0.94598">
        <ele>127</ele>
        <time>2022-09-02T15:55:46Z</time>
      </trkpt>
      <trkpt lat="46.9961" lon="-0.94573">
        <ele>128</ele>
        <time>2022-09-02T15:55:49Z</time>
      </trkpt>
      <trkpt lat="46.996" lon="-0.94566">
        <ele>128</ele>
        <time>2022-09-02T15:55:51Z</time>
      </trkpt>
      <trkpt lat="46.99595" lon="-0.94555">
        <ele>128</ele>
        <time>2022-09-02T15:55:53Z</time>
      </trkpt>
      <trkpt lat="46.99595" lon="-0.94538">
        <ele>128</ele>
        <time>2022-09-02T15:55:55Z</time>
      </trkpt>
      <trkpt lat="46.99597" lon="-0.94531">
        <ele>128</ele>
        <time>2022-09-02T15:55:56Z</time>
      </trkpt>
      <trkpt lat="46.99603" lon="-0.94522">
        <ele>128</ele>
        <time>2022-09-02T15:55:57Z</time>
      </trkpt>
      <trkpt lat="46.9961" lon="-0.94518">
        <ele>128</ele>
        <time>2022-09-02T15:55:58Z</time>
      </trkpt>
      <trkpt lat="46.99618" lon="-0.94519">
        <ele>129</ele>
        <time>2022-09-02T15:56:00Z</time>
      </trkpt>
      <trkpt lat="46.99625" lon="-0.94524">
        <ele>129</ele>
        <time>2022-09-02T15:56:01Z</time>
      </trkpt>
      <trkpt lat="46.99631" lon="-0.94534">
        <ele>129</ele>
        <time>2022-09-02T15:56:03Z</time>
      </trkpt>
      <trkpt lat="46.99646" lon="-0.94524">
        <ele>129</ele>
        <time>2022-09-02T15:56:06Z</time>
      </trkpt>
      <trkpt lat="46.99682" lon="-0.94462">
        <ele>130</ele>
        <time>2022-09-02T15:56:16Z</time>
      </trkpt>
      <trkpt lat="46.99777" lon="-0.94305">
        <ele>128</ele>
        <time>2022-09-02T15:56:41Z</time>
      </trkpt>
      <trkpt lat="46.99808" lon="-0.94268">
        <ele>128</ele>
        <time>2022-09-02T15:56:48Z</time>
      </trkpt>
      <trkpt lat="46.99832" lon="-0.94244">
        <ele>127</ele>
        <time>2022-09-02T15:56:53Z</time>
      </trkpt>
      <trkpt lat="46.99884" lon="-0.94208">
        <ele>126</ele>
        <time>2022-09-02T15:57:04Z</time>
      </trkpt>
      <trkpt lat="46.99909" lon="-0.94195">
        <ele>126</ele>
        <time>2022-09-02T15:57:08Z</time>
      </trkpt>
      <trkpt lat="46.99951" lon="-0.94179">
        <ele>123</ele>
        <time>2022-09-02T15:57:16Z</time>
      </trkpt>
      <trkpt lat="46.99971" lon="-0.94175">
        <ele>121</ele>
        <time>2022-09-02T15:57:20Z</time>
      </trkpt>
      <trkpt lat="47.00002" lon="-0.94174">
        <ele>118</ele>
        <time>2022-09-02T15:57:25Z</time>
      </trkpt>
      <trkpt lat="47.00096" lon="-0.9418">
        <ele>112</ele>
        <time>2022-09-02T15:57:42Z</time>
      </trkpt>
      <trkpt lat="47.00144" lon="-0.94174">
        <ele>111</ele>
        <time>2022-09-02T15:57:51Z</time>
      </trkpt>
      <trkpt lat="47.00168" lon="-0.94166">
        <ele>111</ele>
        <time>2022-09-02T15:57:55Z</time>
      </trkpt>
      <trkpt lat="47.00189" lon="-0.94149">
        <ele>110</ele>
        <time>2022-09-02T15:57:59Z</time>
      </trkpt>
      <trkpt lat="47.00205" lon="-0.94133">
        <ele>109</ele>
        <time>2022-09-02T15:58:03Z</time>
      </trkpt>
      <trkpt lat="47.00215" lon="-0.94119">
        <ele>109</ele>
        <time>2022-09-02T15:58:05Z</time>
      </trkpt>
      <trkpt lat="47.00224" lon="-0.941">
        <ele>109</ele>
        <time>2022-09-02T15:58:08Z</time>
      </trkpt>
      <trkpt lat="47.00221" lon="-0.94083">
        <ele>108</ele>
        <time>2022-09-02T15:58:10Z</time>
      </trkpt>
      <trkpt lat="47.00222" lon="-0.94074">
        <ele>108</ele>
        <time>2022-09-02T15:58:11Z</time>
      </trkpt>
      <trkpt lat="47.00225" lon="-0.94065">
        <ele>108</ele>
        <time>2022-09-02T15:58:12Z</time>
      </trkpt>
      <trkpt lat="47.0023" lon="-0.94058">
        <ele>108</ele>
        <time>2022-09-02T15:58:14Z</time>
      </trkpt>
      <trkpt lat="47.00235" lon="-0.94054">
        <ele>108</ele>
        <time>2022-09-02T15:58:15Z</time>
      </trkpt>
      <trkpt lat="47.00242" lon="-0.94052">
        <ele>108</ele>
        <time>2022-09-02T15:58:16Z</time>
      </trkpt>
      <trkpt lat="47.00248" lon="-0.94053">
        <ele>108</ele>
        <time>2022-09-02T15:58:17Z</time>
      </trkpt>
      <trkpt lat="47.00258" lon="-0.94061">
        <ele>108</ele>
        <time>2022-09-02T15:58:19Z</time>
      </trkpt>
      <trkpt lat="47.00263" lon="-0.94076">
        <ele>108</ele>
        <time>2022-09-02T15:58:21Z</time>
      </trkpt>
      <trkpt lat="47.00263" lon="-0.94093">
        <ele>108</ele>
        <time>2022-09-02T15:58:23Z</time>
      </trkpt>
      <trkpt lat="47.00257" lon="-0.94107">
        <ele>108</ele>
        <time>2022-09-02T15:58:25Z</time>
      </trkpt>
      <trkpt lat="47.0027" lon="-0.94118">
        <ele>108</ele>
        <time>2022-09-02T15:58:28Z</time>
      </trkpt>
      <trkpt lat="47.00291" lon="-0.94147">
        <ele>108</ele>
        <time>2022-09-02T15:58:33Z</time>
      </trkpt>
      <trkpt lat="47.00314" lon="-0.94192">
        <ele>109</ele>
        <time>2022-09-02T15:58:40Z</time>
      </trkpt>
      <trkpt lat="47.0032" lon="-0.94203">
        <ele>109</ele>
        <time>2022-09-02T15:58:41Z</time>
      </trkpt>
      <trkpt lat="47.00326" lon="-0.94208">
        <ele>110</ele>
        <time>2022-09-02T15:58:43Z</time>
      </trkpt>
      <trkpt lat="47.00334" lon="-0.94211">
        <ele>110</ele>
        <time>2022-09-02T15:58:44Z</time>
      </trkpt>
      <trkpt lat="47.00397" lon="-0.94217">
        <ele>110</ele>
        <time>2022-09-02T15:58:55Z</time>
      </trkpt>
      <trkpt lat="47.00406" lon="-0.94192">
        <ele>108</ele>
        <time>2022-09-02T15:58:59Z</time>
      </trkpt>
      <trkpt lat="47.00415" lon="-0.94147">
        <ele>107</ele>
        <time>2022-09-02T15:59:04Z</time>
      </trkpt>
      <trkpt lat="47.0042" lon="-0.94131">
        <ele>106</ele>
        <time>2022-09-02T15:59:07Z</time>
      </trkpt>
      <trkpt lat="47.00477" lon="-0.9407">
        <ele>104</ele>
        <time>2022-09-02T15:59:19Z</time>
      </trkpt>
      <trkpt lat="47.00511" lon="-0.94028">
        <ele>102</ele>
        <time>2022-09-02T15:59:27Z</time>
      </trkpt>
      <trkpt lat="47.00516" lon="-0.94014">
        <ele>102</ele>
        <time>2022-09-02T15:59:29Z</time>
      </trkpt>
      <trkpt lat="47.00519" lon="-0.93999">
        <ele>102</ele>
        <time>2022-09-02T15:59:31Z</time>
      </trkpt>
      <trkpt lat="47.00688" lon="-0.93817">
        <ele>100</ele>
        <time>2022-09-02T16:00:08Z</time>
      </trkpt>
      <trkpt lat="47.00696" lon="-0.93803">
        <ele>100</ele>
        <time>2022-09-02T16:00:10Z</time>
      </trkpt>
      <trkpt lat="47.007" lon="-0.93778">
        <ele>100</ele>
        <time>2022-09-02T16:00:13Z</time>
      </trkpt>
      <trkpt lat="47.00696" lon="-0.93681">
        <ele>101</ele>
        <time>2022-09-02T16:00:25Z</time>
      </trkpt>
      <trkpt lat="47.007" lon="-0.93666">
        <ele>101</ele>
        <time>2022-09-02T16:00:27Z</time>
      </trkpt>
      <trkpt lat="47.00708" lon="-0.93654">
        <ele>100</ele>
        <time>2022-09-02T16:00:29Z</time>
      </trkpt>
      <trkpt lat="47.01358" lon="-0.92973">
        <ele>91</ele>
        <time>2022-09-02T16:02:51Z</time>
      </trkpt>
      <trkpt lat="47.01409" lon="-0.92925">
        <ele>93</ele>
        <time>2022-09-02T16:03:02Z</time>
      </trkpt>
      <trkpt lat="47.01436" lon="-0.92904">
        <ele>94</ele>
        <time>2022-09-02T16:03:08Z</time>
      </trkpt>
      <trkpt lat="47.01472" lon="-0.92882">
        <ele>96</ele>
        <time>2022-09-02T16:03:15Z</time>
      </trkpt>
      <trkpt lat="47.01602" lon="-0.92822">
        <ele>104</ele>
        <time>2022-09-02T16:03:39Z</time>
      </trkpt>
      <trkpt lat="47.01625" lon="-0.92819">
        <ele>104</ele>
        <time>2022-09-02T16:03:43Z</time>
      </trkpt>
      <trkpt lat="47.01631" lon="-0.92809">
        <ele>104</ele>
        <time>2022-09-02T16:03:45Z</time>
      </trkpt>
      <trkpt lat="47.01624" lon="-0.92797">
        <ele>104</ele>
        <time>2022-09-02T16:03:46Z</time>
      </trkpt>
      <trkpt lat="47.01622" lon="-0.92788">
        <ele>104</ele>
        <time>2022-09-02T16:03:48Z</time>
      </trkpt>
      <trkpt lat="47.01623" lon="-0.92779">
        <ele>104</ele>
        <time>2022-09-02T16:03:49Z</time>
      </trkpt>
      <trkpt lat="47.01611" lon="-0.92753">
        <ele>104</ele>
        <time>2022-09-02T16:03:53Z</time>
      </trkpt>
      <trkpt lat="47.01592" lon="-0.92738">
        <ele>105</ele>
        <time>2022-09-02T16:03:56Z</time>
      </trkpt>
      <trkpt lat="47.01555" lon="-0.927">
        <ele>105</ele>
        <time>2022-09-02T16:04:04Z</time>
      </trkpt>
      <trkpt lat="47.01526" lon="-0.92671">
        <ele>105</ele>
        <time>2022-09-02T16:04:11Z</time>
      </trkpt>
      <trkpt lat="47.01504" lon="-0.92664">
        <ele>105</ele>
        <time>2022-09-02T16:04:15Z</time>
      </trkpt>
      <trkpt lat="47.01496" lon="-0.92666">
        <ele>105</ele>
        <time>2022-09-02T16:04:16Z</time>
      </trkpt>
      <trkpt lat="47.0149" lon="-0.92662">
        <ele>105</ele>
        <time>2022-09-02T16:04:17Z</time>
      </trkpt>
      <trkpt lat="47.01484" lon="-0.92652">
        <ele>105</ele>
        <time>2022-09-02T16:04:19Z</time>
      </trkpt>
      <trkpt lat="47.01484" lon="-0.92642">
        <ele>105</ele>
        <time>2022-09-02T16:04:20Z</time>
      </trkpt>
      <trkpt lat="47.01485" lon="-0.92635">
        <ele>106</ele>
        <time>2022-09-02T16:04:21Z</time>
      </trkpt>
      <trkpt lat="47.01491" lon="-0.92626">
        <ele>106</ele>
        <time>2022-09-02T16:04:22Z</time>
      </trkpt>
      <trkpt lat="47.01501" lon="-0.92624">
        <ele>106</ele>
        <time>2022-09-02T16:04:24Z</time>
      </trkpt>
      <trkpt lat="47.01505" lon="-0.9261">
        <ele>106</ele>
        <time>2022-09-02T16:04:26Z</time>
      </trkpt>
      <trkpt lat="47.01509" lon="-0.92605">
        <ele>106</ele>
        <time>2022-09-02T16:04:27Z</time>
      </trkpt>
      <trkpt lat="47.01561" lon="-0.92578">
        <ele>105</ele>
        <time>2022-09-02T16:04:37Z</time>
      </trkpt>
      <trkpt lat="47.01585" lon="-0.9257">
        <ele>105</ele>
        <time>2022-09-02T16:04:41Z</time>
      </trkpt>
      <trkpt lat="47.01632" lon="-0.92559">
        <ele>102</ele>
        <time>2022-09-02T16:04:50Z</time>
      </trkpt>
      <trkpt lat="47.0168" lon="-0.92539">
        <ele>98</ele>
        <time>2022-09-02T16:04:59Z</time>
      </trkpt>
      <trkpt lat="47.01724" lon="-0.9251">
        <ele>96</ele>
        <time>2022-09-02T16:05:07Z</time>
      </trkpt>
      <trkpt lat="47.01767" lon="-0.92471">
        <ele>94</ele>
        <time>2022-09-02T16:05:16Z</time>
      </trkpt>
      <trkpt lat="47.01979" lon="-0.92246">
        <ele>98</ele>
        <time>2022-09-02T16:06:03Z</time>
      </trkpt>
      <trkpt lat="47.02156" lon="-0.92063">
        <ele>102</ele>
        <time>2022-09-02T16:06:41Z</time>
      </trkpt>
      <trkpt lat="47.02961" lon="-0.91213">
        <ele>106</ele>
        <time>2022-09-02T16:09:38Z</time>
      </trkpt>
      <trkpt lat="47.02984" lon="-0.91182">
        <ele>107</ele>
        <time>2022-09-02T16:09:43Z</time>
      </trkpt>
      <trkpt lat="47.02994" lon="-0.91169">
        <ele>107</ele>
        <time>2022-09-02T16:09:46Z</time>
      </trkpt>
      <trkpt lat="47.03031" lon="-0.91135">
        <ele>108</ele>
        <time>2022-09-02T16:09:53Z</time>
      </trkpt>
      <trkpt lat="47.03045" lon="-0.91114">
        <ele>108</ele>
        <time>2022-09-02T16:09:57Z</time>
      </trkpt>
      <trkpt lat="47.03056" lon="-0.91071">
        <ele>108</ele>
        <time>2022-09-02T16:10:03Z</time>
      </trkpt>
      <trkpt lat="47.03065" lon="-0.91054">
        <ele>108</ele>
        <time>2022-09-02T16:10:05Z</time>
      </trkpt>
      <trkpt lat="47.03071" lon="-0.9105">
        <ele>108</ele>
        <time>2022-09-02T16:10:06Z</time>
      </trkpt>
      <trkpt lat="47.03079" lon="-0.91046">
        <ele>108</ele>
        <time>2022-09-02T16:10:08Z</time>
      </trkpt>
      <trkpt lat="47.03084" lon="-0.91047">
        <ele>108</ele>
        <time>2022-09-02T16:10:09Z</time>
      </trkpt>
      <trkpt lat="47.03089" lon="-0.91052">
        <ele>108</ele>
        <time>2022-09-02T16:10:10Z</time>
      </trkpt>
      <trkpt lat="47.03093" lon="-0.91066">
        <ele>108</ele>
        <time>2022-09-02T16:10:12Z</time>
      </trkpt>
      <trkpt lat="47.03094" lon="-0.91083">
        <ele>108</ele>
        <time>2022-09-02T16:10:14Z</time>
      </trkpt>
      <trkpt lat="47.03102" lon="-0.91082">
        <ele>108</ele>
        <time>2022-09-02T16:10:15Z</time>
      </trkpt>
      <trkpt lat="47.03111" lon="-0.91085">
        <ele>108</ele>
        <time>2022-09-02T16:10:17Z</time>
      </trkpt>
      <trkpt lat="47.03119" lon="-0.91091">
        <ele>108</ele>
        <time>2022-09-02T16:10:18Z</time>
      </trkpt>
      <trkpt lat="47.03126" lon="-0.91101">
        <ele>108</ele>
        <time>2022-09-02T16:10:20Z</time>
      </trkpt>
      <trkpt lat="47.0313" lon="-0.91114">
        <ele>108</ele>
        <time>2022-09-02T16:10:22Z</time>
      </trkpt>
      <trkpt lat="47.03131" lon="-0.91126">
        <ele>108</ele>
        <time>2022-09-02T16:10:23Z</time>
      </trkpt>
      <trkpt lat="47.0313" lon="-0.91138">
        <ele>108</ele>
        <time>2022-09-02T16:10:25Z</time>
      </trkpt>
      <trkpt lat="47.03125" lon="-0.91153">
        <ele>108</ele>
        <time>2022-09-02T16:10:27Z</time>
      </trkpt>
      <trkpt lat="47.03128" lon="-0.91241">
        <ele>106</ele>
        <time>2022-09-02T16:10:38Z</time>
      </trkpt>
      <trkpt lat="47.03126" lon="-0.91286">
        <ele>104</ele>
        <time>2022-09-02T16:10:43Z</time>
      </trkpt>
      <trkpt lat="47.03114" lon="-0.91441">
        <ele>104</ele>
        <time>2022-09-02T16:11:02Z</time>
      </trkpt>
      <trkpt lat="47.03115" lon="-0.91455">
        <ele>104</ele>
        <time>2022-09-02T16:11:04Z</time>
      </trkpt>
      <trkpt lat="47.03119" lon="-0.91471">
        <ele>104</ele>
        <time>2022-09-02T16:11:06Z</time>
      </trkpt>
      <trkpt lat="47.03124" lon="-0.91481">
        <ele>104</ele>
        <time>2022-09-02T16:11:07Z</time>
      </trkpt>
      <trkpt lat="47.03126" lon="-0.91493">
        <ele>104</ele>
        <time>2022-09-02T16:11:09Z</time>
      </trkpt>
      <trkpt lat="47.03125" lon="-0.91502">
        <ele>104</ele>
        <time>2022-09-02T16:11:10Z</time>
      </trkpt>
      <trkpt lat="47.03121" lon="-0.9151">
        <ele>104</ele>
        <time>2022-09-02T16:11:11Z</time>
      </trkpt>
      <trkpt lat="47.03116" lon="-0.91516">
        <ele>104</ele>
        <time>2022-09-02T16:11:12Z</time>
      </trkpt>
      <trkpt lat="47.03109" lon="-0.91518">
        <ele>104</ele>
        <time>2022-09-02T16:11:13Z</time>
      </trkpt>
      <trkpt lat="47.03145" lon="-0.91949">
        <ele>102</ele>
        <time>2022-09-02T16:12:06Z</time>
      </trkpt>
      <trkpt lat="47.03148" lon="-0.91988">
        <ele>102</ele>
        <time>2022-09-02T16:12:11Z</time>
      </trkpt>
      <trkpt lat="47.03149" lon="-0.92056">
        <ele>102</ele>
        <time>2022-09-02T16:12:19Z</time>
      </trkpt>
      <trkpt lat="47.03156" lon="-0.92084">
        <ele>102</ele>
        <time>2022-09-02T16:12:23Z</time>
      </trkpt>
      <trkpt lat="47.03162" lon="-0.92097">
        <ele>102</ele>
        <time>2022-09-02T16:12:25Z</time>
      </trkpt>
      <trkpt lat="47.03169" lon="-0.92107">
        <ele>102</ele>
        <time>2022-09-02T16:12:26Z</time>
      </trkpt>
      <trkpt lat="47.03184" lon="-0.9212">
        <ele>102</ele>
        <time>2022-09-02T16:12:29Z</time>
      </trkpt>
      <trkpt lat="47.03188" lon="-0.92114">
        <ele>103</ele>
        <time>2022-09-02T16:12:30Z</time>
      </trkpt>
      <trkpt lat="47.03193" lon="-0.92109">
        <ele>103</ele>
        <time>2022-09-02T16:12:32Z</time>
      </trkpt>
      <trkpt lat="47.03199" lon="-0.92107">
        <ele>103</ele>
        <time>2022-09-02T16:12:33Z</time>
      </trkpt>
      <trkpt lat="47.03205" lon="-0.92108">
        <ele>103</ele>
        <time>2022-09-02T16:12:34Z</time>
      </trkpt>
      <trkpt lat="47.03211" lon="-0.92112">
        <ele>103</ele>
        <time>2022-09-02T16:12:35Z</time>
      </trkpt>
      <trkpt lat="47.03215" lon="-0.92119">
        <ele>103</ele>
        <time>2022-09-02T16:12:36Z</time>
      </trkpt>
      <trkpt lat="47.03218" lon="-0.92127">
        <ele>103</ele>
        <time>2022-09-02T16:12:37Z</time>
      </trkpt>
      <trkpt lat="47.03219" lon="-0.92137">
        <ele>103</ele>
        <time>2022-09-02T16:12:38Z</time>
      </trkpt>
      <trkpt lat="47.03218" lon="-0.92146">
        <ele>103</ele>
        <time>2022-09-02T16:12:39Z</time>
      </trkpt>
      <trkpt lat="47.03256" lon="-0.92161">
        <ele>102</ele>
        <time>2022-09-02T16:12:46Z</time>
      </trkpt>
      <trkpt lat="47.03267" lon="-0.92168">
        <ele>102</ele>
        <time>2022-09-02T16:12:49Z</time>
      </trkpt>
      <trkpt lat="47.0329" lon="-0.9219">
        <ele>102</ele>
        <time>2022-09-02T16:12:53Z</time>
      </trkpt>
      <trkpt lat="47.0331" lon="-0.92219">
        <ele>102</ele>
        <time>2022-09-02T16:12:58Z</time>
      </trkpt>
      <trkpt lat="47.03318" lon="-0.92238">
        <ele>102</ele>
        <time>2022-09-02T16:13:01Z</time>
      </trkpt>
      <trkpt lat="47.03329" lon="-0.92272">
        <ele>101</ele>
        <time>2022-09-02T16:13:06Z</time>
      </trkpt>
      <trkpt lat="47.03333" lon="-0.92294">
        <ele>101</ele>
        <time>2022-09-02T16:13:08Z</time>
      </trkpt>
      <trkpt lat="47.03335" lon="-0.92336">
        <ele>100</ele>
        <time>2022-09-02T16:13:14Z</time>
      </trkpt>
      <trkpt lat="47.03334" lon="-0.92361">
        <ele>100</ele>
        <time>2022-09-02T16:13:17Z</time>
      </trkpt>
      <trkpt lat="47.03329" lon="-0.92387">
        <ele>99</ele>
        <time>2022-09-02T16:13:20Z</time>
      </trkpt>
      <trkpt lat="47.03323" lon="-0.92411">
        <ele>99</ele>
        <time>2022-09-02T16:13:23Z</time>
      </trkpt>
      <trkpt lat="47.03314" lon="-0.92433">
        <ele>98</ele>
        <time>2022-09-02T16:13:26Z</time>
      </trkpt>
      <trkpt lat="47.03302" lon="-0.92457">
        <ele>98</ele>
        <time>2022-09-02T16:13:30Z</time>
      </trkpt>
      <trkpt lat="47.03287" lon="-0.92477">
        <ele>98</ele>
        <time>2022-09-02T16:13:33Z</time>
      </trkpt>
      <trkpt lat="47.03268" lon="-0.92497">
        <ele>97</ele>
        <time>2022-09-02T16:13:37Z</time>
      </trkpt>
      <trkpt lat="47.03202" lon="-0.92565">
        <ele>94</ele>
        <time>2022-09-02T16:13:52Z</time>
      </trkpt>
      <trkpt lat="47.03184" lon="-0.92589">
        <ele>93</ele>
        <time>2022-09-02T16:13:56Z</time>
      </trkpt>
      <trkpt lat="47.03174" lon="-0.92607">
        <ele>92</ele>
        <time>2022-09-02T16:13:59Z</time>
      </trkpt>
      <trkpt lat="47.0316" lon="-0.92645">
        <ele>91</ele>
        <time>2022-09-02T16:14:04Z</time>
      </trkpt>
      <trkpt lat="47.03156" lon="-0.92666">
        <ele>90</ele>
        <time>2022-09-02T16:14:07Z</time>
      </trkpt>
      <trkpt lat="47.03153" lon="-0.92704">
        <ele>90</ele>
        <time>2022-09-02T16:14:12Z</time>
      </trkpt>
      <trkpt lat="47.03153" lon="-0.92722">
        <ele>90</ele>
        <time>2022-09-02T16:14:14Z</time>
      </trkpt>
      <trkpt lat="47.03156" lon="-0.92746">
        <ele>90</ele>
        <time>2022-09-02T16:14:17Z</time>
      </trkpt>
      <trkpt lat="47.03203" lon="-0.92949">
        <ele>89</ele>
        <time>2022-09-02T16:14:43Z</time>
      </trkpt>
      <trkpt lat="47.03261" lon="-0.93194">
        <ele>88</ele>
        <time>2022-09-02T16:15:14Z</time>
      </trkpt>
      <trkpt lat="47.03265" lon="-0.93221">
        <ele>87</ele>
        <time>2022-09-02T16:15:17Z</time>
      </trkpt>
      <trkpt lat="47.03268" lon="-0.93252">
        <ele>87</ele>
        <time>2022-09-02T16:15:21Z</time>
      </trkpt>
      <trkpt lat="47.03268" lon="-0.93284">
        <ele>87</ele>
        <time>2022-09-02T16:15:25Z</time>
      </trkpt>
      <trkpt lat="47.03259" lon="-0.93356">
        <ele>87</ele>
        <time>2022-09-02T16:15:34Z</time>
      </trkpt>
      <trkpt lat="47.03212" lon="-0.9364">
        <ele>85</ele>
        <time>2022-09-02T16:16:09Z</time>
      </trkpt>
      <trkpt lat="47.032" lon="-0.9368">
        <ele>86</ele>
        <time>2022-09-02T16:16:15Z</time>
      </trkpt>
      <trkpt lat="47.03191" lon="-0.93698">
        <ele>87</ele>
        <time>2022-09-02T16:16:17Z</time>
      </trkpt>
      <trkpt lat="47.03194" lon="-0.93706">
        <ele>87</ele>
        <time>2022-09-02T16:16:19Z</time>
      </trkpt>
      <trkpt lat="47.03194" lon="-0.93711">
        <ele>87</ele>
        <time>2022-09-02T16:16:19Z</time>
      </trkpt>
      <trkpt lat="47.03193" lon="-0.93715">
        <ele>87</ele>
        <time>2022-09-02T16:16:20Z</time>
      </trkpt>
      <trkpt lat="47.03189" lon="-0.93722">
        <ele>88</ele>
        <time>2022-09-02T16:16:21Z</time>
      </trkpt>
      <trkpt lat="47.03186" lon="-0.93724">
        <ele>88</ele>
        <time>2022-09-02T16:16:21Z</time>
      </trkpt>
      <trkpt lat="47.03179" lon="-0.93722">
        <ele>88</ele>
        <time>2022-09-02T16:16:23Z</time>
      </trkpt>
      <trkpt lat="47.03167" lon="-0.93752">
        <ele>89</ele>
        <time>2022-09-02T16:16:27Z</time>
      </trkpt>
      <trkpt lat="47.03131" lon="-0.93814">
        <ele>91</ele>
        <time>2022-09-02T16:16:37Z</time>
      </trkpt>
      <trkpt lat="47.03045" lon="-0.9394">
        <ele>92</ele>
        <time>2022-09-02T16:16:58Z</time>
      </trkpt>
      <trkpt lat="47.03025" lon="-0.93972">
        <ele>91</ele>
        <time>2022-09-02T16:17:04Z</time>
      </trkpt>
      <trkpt lat="47.03005" lon="-0.94044">
        <ele>90</ele>
        <time>2022-09-02T16:17:13Z</time>
      </trkpt>
      <trkpt lat="47.02918" lon="-0.9424">
        <ele>89</ele>
        <time>2022-09-02T16:17:41Z</time>
      </trkpt>
      <trkpt lat="47.02921" lon="-0.94245">
        <ele>89</ele>
        <time>2022-09-02T16:17:42Z</time>
      </trkpt>
      <trkpt lat="47.02921" lon="-0.94253">
        <ele>89</ele>
        <time>2022-09-02T16:17:43Z</time>
      </trkpt>
      <trkpt lat="47.02918" lon="-0.94257">
        <ele>89</ele>
        <time>2022-09-02T16:17:44Z</time>
      </trkpt>
      <trkpt lat="47.02912" lon="-0.94256">
        <ele>89</ele>
        <time>2022-09-02T16:17:45Z</time>
      </trkpt>
      <trkpt lat="47.02833" lon="-0.94436">
        <ele>91</ele>
        <time>2022-09-02T16:18:11Z</time>
      </trkpt>
      <trkpt lat="47.02828" lon="-0.94442">
        <ele>92</ele>
        <time>2022-09-02T16:18:12Z</time>
      </trkpt>
      <trkpt lat="47.02811" lon="-0.9448">
        <ele>94</ele>
        <time>2022-09-02T16:18:18Z</time>
      </trkpt>
      <trkpt lat="47.0281" lon="-0.94495">
        <ele>95</ele>
        <time>2022-09-02T16:18:19Z</time>
      </trkpt>
      <trkpt lat="47.02805" lon="-0.94512">
        <ele>95</ele>
        <time>2022-09-02T16:18:22Z</time>
      </trkpt>
      <trkpt lat="47.02798" lon="-0.9452">
        <ele>96</ele>
        <time>2022-09-02T16:18:23Z</time>
      </trkpt>
      <trkpt lat="47.02772" lon="-0.94584">
        <ele>98</ele>
        <time>2022-09-02T16:18:32Z</time>
      </trkpt>
      <trkpt lat="47.02761" lon="-0.94601">
        <ele>98</ele>
        <time>2022-09-02T16:18:35Z</time>
      </trkpt>
      <trkpt lat="47.02752" lon="-0.94615">
        <ele>99</ele>
        <time>2022-09-02T16:18:37Z</time>
      </trkpt>
      <trkpt lat="47.02627" lon="-0.94741">
        <ele>99</ele>
        <time>2022-09-02T16:19:04Z</time>
      </trkpt>
      <trkpt lat="47.02607" lon="-0.94764">
        <ele>99</ele>
        <time>2022-09-02T16:19:09Z</time>
      </trkpt>
      <trkpt lat="47.02602" lon="-0.94775">
        <ele>99</ele>
        <time>2022-09-02T16:19:11Z</time>
      </trkpt>
      <trkpt lat="47.02604" lon="-0.94788">
        <ele>99</ele>
        <time>2022-09-02T16:19:12Z</time>
      </trkpt>
      <trkpt lat="47.02607" lon="-0.9488">
        <ele>97</ele>
        <time>2022-09-02T16:19:23Z</time>
      </trkpt>
      <trkpt lat="47.02615" lon="-0.95013">
        <ele>94</ele>
        <time>2022-09-02T16:19:40Z</time>
      </trkpt>
      <trkpt lat="47.02686" lon="-0.95845">
        <ele>105</ele>
        <time>2022-09-02T16:21:21Z</time>
      </trkpt>
      <trkpt lat="47.02686" lon="-0.95872">
        <ele>104</ele>
        <time>2022-09-02T16:21:25Z</time>
      </trkpt>
      <trkpt lat="47.02682" lon="-0.95897">
        <ele>104</ele>
        <time>2022-09-02T16:21:28Z</time>
      </trkpt>
      <trkpt lat="47.02674" lon="-0.95926">
        <ele>104</ele>
        <time>2022-09-02T16:21:31Z</time>
      </trkpt>
      <trkpt lat="47.02549" lon="-0.96318">
        <ele>95</ele>
        <time>2022-09-02T16:22:24Z</time>
      </trkpt>
      <trkpt lat="47.02541" lon="-0.96354">
        <ele>94</ele>
        <time>2022-09-02T16:22:29Z</time>
      </trkpt>
      <trkpt lat="47.02536" lon="-0.96392">
        <ele>92</ele>
        <time>2022-09-02T16:22:33Z</time>
      </trkpt>
      <trkpt lat="47.02517" lon="-0.9662">
        <ele>89</ele>
        <time>2022-09-02T16:23:01Z</time>
      </trkpt>
      <trkpt lat="47.02479" lon="-0.97122">
        <ele>96</ele>
        <time>2022-09-02T16:24:02Z</time>
      </trkpt>
      <trkpt lat="47.02476" lon="-0.97147">
        <ele>96</ele>
        <time>2022-09-02T16:24:05Z</time>
      </trkpt>
      <trkpt lat="47.02463" lon="-0.97196">
        <ele>96</ele>
        <time>2022-09-02T16:24:12Z</time>
      </trkpt>
      <trkpt lat="47.02369" lon="-0.97446">
        <ele>103</ele>
        <time>2022-09-02T16:24:46Z</time>
      </trkpt>
      <trkpt lat="47.02311" lon="-0.97572">
        <ele>108</ele>
        <time>2022-09-02T16:25:05Z</time>
      </trkpt>
      <trkpt lat="47.02295" lon="-0.97616">
        <ele>110</ele>
        <time>2022-09-02T16:25:11Z</time>
      </trkpt>
      <trkpt lat="47.02291" lon="-0.97642">
        <ele>112</ele>
        <time>2022-09-02T16:25:14Z</time>
      </trkpt>
      <trkpt lat="47.0219" lon="-0.98555">
        <ele>126</ele>
        <time>2022-09-02T16:27:06Z</time>
      </trkpt>
      <trkpt lat="47.02181" lon="-0.98611">
        <ele>126</ele>
        <time>2022-09-02T16:27:13Z</time>
      </trkpt>
      <trkpt lat="47.02174" lon="-0.98638">
        <ele>127</ele>
        <time>2022-09-02T16:27:17Z</time>
      </trkpt>
      <trkpt lat="47.02164" lon="-0.98669">
        <ele>127</ele>
        <time>2022-09-02T16:27:21Z</time>
      </trkpt>
      <trkpt lat="47.0215" lon="-0.98699">
        <ele>128</ele>
        <time>2022-09-02T16:27:25Z</time>
      </trkpt>
      <trkpt lat="47.01888" lon="-0.99168">
        <ele>136</ele>
        <time>2022-09-02T16:28:39Z</time>
      </trkpt>
      <trkpt lat="47.01867" lon="-0.99217">
        <ele>137</ele>
        <time>2022-09-02T16:28:46Z</time>
      </trkpt>
      <trkpt lat="47.0179" lon="-0.99439">
        <ele>137</ele>
        <time>2022-09-02T16:29:16Z</time>
      </trkpt>
      <trkpt lat="47.01774" lon="-0.9948">
        <ele>136</ele>
        <time>2022-09-02T16:29:22Z</time>
      </trkpt>
      <trkpt lat="47.01759" lon="-0.99506">
        <ele>136</ele>
        <time>2022-09-02T16:29:26Z</time>
      </trkpt>
      <trkpt lat="47.01749" lon="-0.99519">
        <ele>136</ele>
        <time>2022-09-02T16:29:28Z</time>
      </trkpt>
      <trkpt lat="47.01731" lon="-0.99533">
        <ele>135</ele>
        <time>2022-09-02T16:29:32Z</time>
      </trkpt>
      <trkpt lat="47.01697" lon="-0.99553">
        <ele>135</ele>
        <time>2022-09-02T16:29:39Z</time>
      </trkpt>
      <trkpt lat="47.01477" lon="-0.99663">
        <ele>134</ele>
        <time>2022-09-02T16:30:20Z</time>
      </trkpt>
      <trkpt lat="47.01405" lon="-0.99721">
        <ele>132</ele>
        <time>2022-09-02T16:30:35Z</time>
      </trkpt>
      <trkpt lat="47.01303" lon="-0.99807">
        <ele>129</ele>
        <time>2022-09-02T16:30:55Z</time>
      </trkpt>
      <trkpt lat="47.01272" lon="-0.99841">
        <ele>128</ele>
        <time>2022-09-02T16:31:02Z</time>
      </trkpt>
      <trkpt lat="47.01197" lon="-0.99928">
        <ele>127</ele>
        <time>2022-09-02T16:31:19Z</time>
      </trkpt>
      <trkpt lat="47.0114" lon="-0.9998">
        <ele>125</ele>
        <time>2022-09-02T16:31:31Z</time>
      </trkpt>
      <trkpt lat="47.01119" lon="-1.00005">
        <ele>124</ele>
        <time>2022-09-02T16:31:36Z</time>
      </trkpt>
      <trkpt lat="47.0092" lon="-1.00288">
        <ele>118</ele>
        <time>2022-09-02T16:32:25Z</time>
      </trkpt>
      <trkpt lat="47.00829" lon="-1.00393">
        <ele>116</ele>
        <time>2022-09-02T16:32:46Z</time>
      </trkpt>
      <trkpt lat="47.00708" lon="-1.00548">
        <ele>108</ele>
        <time>2022-09-02T16:33:15Z</time>
      </trkpt>
      <trkpt lat="47.00641" lon="-1.00649">
        <ele>102</ele>
        <time>2022-09-02T16:33:32Z</time>
      </trkpt>
      <trkpt lat="47.00624" lon="-1.00669">
        <ele>101</ele>
        <time>2022-09-02T16:33:36Z</time>
      </trkpt>
      <trkpt lat="47.006" lon="-1.00684">
        <ele>99</ele>
        <time>2022-09-02T16:33:40Z</time>
      </trkpt>
      <trkpt lat="47.00567" lon="-1.00698">
        <ele>98</ele>
        <time>2022-09-02T16:33:46Z</time>
      </trkpt>
      <trkpt lat="47.00545" lon="-1.00716">
        <ele>97</ele>
        <time>2022-09-02T16:33:51Z</time>
      </trkpt>
      <trkpt lat="47.00534" lon="-1.00733">
        <ele>97</ele>
        <time>2022-09-02T16:33:54Z</time>
      </trkpt>
      <trkpt lat="47.00512" lon="-1.00783">
        <ele>95</ele>
        <time>2022-09-02T16:34:01Z</time>
      </trkpt>
      <trkpt lat="47.00489" lon="-1.0085">
        <ele>93</ele>
        <time>2022-09-02T16:34:10Z</time>
      </trkpt>
      <trkpt lat="47.00486" lon="-1.00871">
        <ele>92</ele>
        <time>2022-09-02T16:34:13Z</time>
      </trkpt>
      <trkpt lat="47.00481" lon="-1.00926">
        <ele>91</ele>
        <time>2022-09-02T16:34:19Z</time>
      </trkpt>
      <trkpt lat="47.00474" lon="-1.00952">
        <ele>90</ele>
        <time>2022-09-02T16:34:23Z</time>
      </trkpt>
      <trkpt lat="47.00467" lon="-1.00964">
        <ele>90</ele>
        <time>2022-09-02T16:34:25Z</time>
      </trkpt>
      <trkpt lat="47.0038" lon="-1.0106">
        <ele>84</ele>
        <time>2022-09-02T16:34:44Z</time>
      </trkpt>
      <trkpt lat="47.00368" lon="-1.01077">
        <ele>83</ele>
        <time>2022-09-02T16:34:47Z</time>
      </trkpt>
      <trkpt lat="47.00342" lon="-1.01134">
        <ele>80</ele>
        <time>2022-09-02T16:34:55Z</time>
      </trkpt>
      <trkpt lat="47.0033" lon="-1.01156">
        <ele>79</ele>
        <time>2022-09-02T16:34:59Z</time>
      </trkpt>
      <trkpt lat="47.00306" lon="-1.01183">
        <ele>76</ele>
        <time>2022-09-02T16:35:04Z</time>
      </trkpt>
      <trkpt lat="47.00284" lon="-1.01202">
        <ele>74</ele>
        <time>2022-09-02T16:35:09Z</time>
      </trkpt>
      <trkpt lat="47.00236" lon="-1.01234">
        <ele>71</ele>
        <time>2022-09-02T16:35:18Z</time>
      </trkpt>
      <trkpt lat="47.00226" lon="-1.01245">
        <ele>70</ele>
        <time>2022-09-02T16:35:20Z</time>
      </trkpt>
      <trkpt lat="47.00221" lon="-1.01257">
        <ele>70</ele>
        <time>2022-09-02T16:35:22Z</time>
      </trkpt>
      <trkpt lat="47.00219" lon="-1.01282">
        <ele>69</ele>
        <time>2022-09-02T16:35:25Z</time>
      </trkpt>
      <trkpt lat="47.0022" lon="-1.01315">
        <ele>68</ele>
        <time>2022-09-02T16:35:29Z</time>
      </trkpt>
      <trkpt lat="47.00225" lon="-1.01338">
        <ele>69</ele>
        <time>2022-09-02T16:35:32Z</time>
      </trkpt>
      <trkpt lat="47.0024" lon="-1.01375">
        <ele>68</ele>
        <time>2022-09-02T16:35:37Z</time>
      </trkpt>
      <trkpt lat="47.00252" lon="-1.01396">
        <ele>68</ele>
        <time>2022-09-02T16:35:41Z</time>
      </trkpt>
      <trkpt lat="47.00292" lon="-1.01455">
        <ele>67</ele>
        <time>2022-09-02T16:35:51Z</time>
      </trkpt>
      <trkpt lat="47.00298" lon="-1.01468">
        <ele>67</ele>
        <time>2022-09-02T16:35:53Z</time>
      </trkpt>
      <trkpt lat="47.003" lon="-1.01481">
        <ele>66</ele>
        <time>2022-09-02T16:35:54Z</time>
      </trkpt>
      <trkpt lat="47.00299" lon="-1.015">
        <ele>65</ele>
        <time>2022-09-02T16:35:56Z</time>
      </trkpt>
      <trkpt lat="47.00296" lon="-1.01512">
        <ele>64</ele>
        <time>2022-09-02T16:35:58Z</time>
      </trkpt>
      <trkpt lat="47.0029" lon="-1.01526">
        <ele>63</ele>
        <time>2022-09-02T16:36:00Z</time>
      </trkpt>
      <trkpt lat="47.00262" lon="-1.01575">
        <ele>60</ele>
        <time>2022-09-02T16:36:08Z</time>
      </trkpt>
      <trkpt lat="47.00253" lon="-1.01595">
        <ele>61</ele>
        <time>2022-09-02T16:36:11Z</time>
      </trkpt>
      <trkpt lat="47.00249" lon="-1.0161">
        <ele>63</ele>
        <time>2022-09-02T16:36:13Z</time>
      </trkpt>
      <trkpt lat="47.00248" lon="-1.01633">
        <ele>66</ele>
        <time>2022-09-02T16:36:15Z</time>
      </trkpt>
      <trkpt lat="47.0025" lon="-1.01645">
        <ele>67</ele>
        <time>2022-09-02T16:36:17Z</time>
      </trkpt>
      <trkpt lat="47.00255" lon="-1.0166">
        <ele>68</ele>
        <time>2022-09-02T16:36:19Z</time>
      </trkpt>
      <trkpt lat="47.00263" lon="-1.01676">
        <ele>68</ele>
        <time>2022-09-02T16:36:21Z</time>
      </trkpt>
      <trkpt lat="47.00301" lon="-1.01737">
        <ele>68</ele>
        <time>2022-09-02T16:36:31Z</time>
      </trkpt>
      <trkpt lat="47.00316" lon="-1.01767">
        <ele>68</ele>
        <time>2022-09-02T16:36:36Z</time>
      </trkpt>
      <trkpt lat="47.00341" lon="-1.01838">
        <ele>70</ele>
        <time>2022-09-02T16:36:46Z</time>
      </trkpt>
      <trkpt lat="47.0036" lon="-1.01908">
        <ele>73</ele>
        <time>2022-09-02T16:36:55Z</time>
      </trkpt>
      <trkpt lat="47.00367" lon="-1.01951">
        <ele>75</ele>
        <time>2022-09-02T16:37:00Z</time>
      </trkpt>
      <trkpt lat="47.0037" lon="-1.01999">
        <ele>77</ele>
        <time>2022-09-02T16:37:06Z</time>
      </trkpt>
      <trkpt lat="47.00367" lon="-1.02035">
        <ele>78</ele>
        <time>2022-09-02T16:37:10Z</time>
      </trkpt>
      <trkpt lat="47.00362" lon="-1.02075">
        <ele>80</ele>
        <time>2022-09-02T16:37:15Z</time>
      </trkpt>
      <trkpt lat="47.0035" lon="-1.02163">
        <ele>84</ele>
        <time>2022-09-02T16:37:26Z</time>
      </trkpt>
      <trkpt lat="47.00343" lon="-1.022">
        <ele>85</ele>
        <time>2022-09-02T16:37:31Z</time>
      </trkpt>
      <trkpt lat="47.0034" lon="-1.02208">
        <ele>85</ele>
        <time>2022-09-02T16:37:32Z</time>
      </trkpt>
      <trkpt lat="47.00329" lon="-1.02227">
        <ele>88</ele>
        <time>2022-09-02T16:37:35Z</time>
      </trkpt>
      <trkpt lat="47.00304" lon="-1.02257">
        <ele>91</ele>
        <time>2022-09-02T16:37:41Z</time>
      </trkpt>
      <trkpt lat="47.00298" lon="-1.02277">
        <ele>92</ele>
        <time>2022-09-02T16:37:43Z</time>
      </trkpt>
      <trkpt lat="47.00297" lon="-1.02307">
        <ele>91</ele>
        <time>2022-09-02T16:37:47Z</time>
      </trkpt>
      <trkpt lat="47.00299" lon="-1.0235">
        <ele>89</ele>
        <time>2022-09-02T16:37:52Z</time>
      </trkpt>
      <trkpt lat="47.00297" lon="-1.02369">
        <ele>89</ele>
        <time>2022-09-02T16:37:55Z</time>
      </trkpt>
      <trkpt lat="47.00291" lon="-1.02385">
        <ele>89</ele>
        <time>2022-09-02T16:37:57Z</time>
      </trkpt>
      <trkpt lat="47.00284" lon="-1.02397">
        <ele>90</ele>
        <time>2022-09-02T16:37:59Z</time>
      </trkpt>
      <trkpt lat="47.00252" lon="-1.02432">
        <ele>93</ele>
        <time>2022-09-02T16:38:06Z</time>
      </trkpt>
      <trkpt lat="47.00206" lon="-1.02455">
        <ele>100</ele>
        <time>2022-09-02T16:38:14Z</time>
      </trkpt>
      <trkpt lat="47.00193" lon="-1.02464">
        <ele>101</ele>
        <time>2022-09-02T16:38:17Z</time>
      </trkpt>
      <trkpt lat="47.00172" lon="-1.02485">
        <ele>103</ele>
        <time>2022-09-02T16:38:22Z</time>
      </trkpt>
      <trkpt lat="47.00158" lon="-1.02494">
        <ele>103</ele>
        <time>2022-09-02T16:38:24Z</time>
      </trkpt>
      <trkpt lat="47.00144" lon="-1.02496">
        <ele>104</ele>
        <time>2022-09-02T16:38:27Z</time>
      </trkpt>
      <trkpt lat="47.00103" lon="-1.02485">
        <ele>105</ele>
        <time>2022-09-02T16:38:34Z</time>
      </trkpt>
      <trkpt lat="47.00061" lon="-1.02486">
        <ele>106</ele>
        <time>2022-09-02T16:38:42Z</time>
      </trkpt>
      <trkpt lat="47.00031" lon="-1.02493">
        <ele>107</ele>
        <time>2022-09-02T16:38:47Z</time>
      </trkpt>
      <trkpt lat="46.9995" lon="-1.02524">
        <ele>111</ele>
        <time>2022-09-02T16:39:02Z</time>
      </trkpt>
      <trkpt lat="46.9991" lon="-1.02548">
        <ele>113</ele>
        <time>2022-09-02T16:39:10Z</time>
      </trkpt>
      <trkpt lat="46.99898" lon="-1.02563">
        <ele>113</ele>
        <time>2022-09-02T16:39:12Z</time>
      </trkpt>
      <trkpt lat="46.99889" lon="-1.02584">
        <ele>113</ele>
        <time>2022-09-02T16:39:15Z</time>
      </trkpt>
      <trkpt lat="46.99796" lon="-1.0301">
        <ele>123</ele>
        <time>2022-09-02T16:40:10Z</time>
      </trkpt>
      <trkpt lat="46.99788" lon="-1.03044">
        <ele>124</ele>
        <time>2022-09-02T16:40:14Z</time>
      </trkpt>
      <trkpt lat="46.99777" lon="-1.03077">
        <ele>124</ele>
        <time>2022-09-02T16:40:19Z</time>
      </trkpt>
      <trkpt lat="46.99764" lon="-1.03098">
        <ele>125</ele>
        <time>2022-09-02T16:40:22Z</time>
      </trkpt>
      <trkpt lat="46.99754" lon="-1.03108">
        <ele>125</ele>
        <time>2022-09-02T16:40:24Z</time>
      </trkpt>
      <trkpt lat="46.99649" lon="-1.0317">
        <ele>130</ele>
        <time>2022-09-02T16:40:44Z</time>
      </trkpt>
      <trkpt lat="46.99627" lon="-1.0319">
        <ele>131</ele>
        <time>2022-09-02T16:40:49Z</time>
      </trkpt>
      <trkpt lat="46.99611" lon="-1.03216">
        <ele>132</ele>
        <time>2022-09-02T16:40:53Z</time>
      </trkpt>
      <trkpt lat="46.99598" lon="-1.03252">
        <ele>133</ele>
        <time>2022-09-02T16:40:58Z</time>
      </trkpt>
      <trkpt lat="46.99572" lon="-1.03356">
        <ele>133</ele>
        <time>2022-09-02T16:41:12Z</time>
      </trkpt>
      <trkpt lat="46.99547" lon="-1.03453">
        <ele>135</ele>
        <time>2022-09-02T16:41:24Z</time>
      </trkpt>
      <trkpt lat="46.99499" lon="-1.03609">
        <ele>138</ele>
        <time>2022-09-02T16:41:45Z</time>
      </trkpt>
      <trkpt lat="46.99456" lon="-1.03733">
        <ele>139</ele>
        <time>2022-09-02T16:42:02Z</time>
      </trkpt>
      <trkpt lat="46.99442" lon="-1.03775">
        <ele>139</ele>
        <time>2022-09-02T16:42:07Z</time>
      </trkpt>
      <trkpt lat="46.99435" lon="-1.03806">
        <ele>139</ele>
        <time>2022-09-02T16:42:11Z</time>
      </trkpt>
      <trkpt lat="46.9926" lon="-1.04364">
        <ele>134</ele>
        <time>2022-09-02T16:43:26Z</time>
      </trkpt>
      <trkpt lat="46.99234" lon="-1.04386">
        <ele>133</ele>
        <time>2022-09-02T16:43:31Z</time>
      </trkpt>
      <trkpt lat="46.99206" lon="-1.04403">
        <ele>134</ele>
        <time>2022-09-02T16:43:37Z</time>
      </trkpt>
      <trkpt lat="46.99177" lon="-1.04439">
        <ele>134</ele>
        <time>2022-09-02T16:43:43Z</time>
      </trkpt>
      <trkpt lat="46.99179" lon="-1.04448">
        <ele>134</ele>
        <time>2022-09-02T16:43:45Z</time>
      </trkpt>
      <trkpt lat="46.99176" lon="-1.04454">
        <ele>134</ele>
        <time>2022-09-02T16:43:46Z</time>
      </trkpt>
      <trkpt lat="46.99171" lon="-1.04457">
        <ele>134</ele>
        <time>2022-09-02T16:43:46Z</time>
      </trkpt>
      <trkpt lat="46.99165" lon="-1.04453">
        <ele>134</ele>
        <time>2022-09-02T16:43:48Z</time>
      </trkpt>
      <trkpt lat="46.9914" lon="-1.04458">
        <ele>133</ele>
        <time>2022-09-02T16:43:52Z</time>
      </trkpt>
      <trkpt lat="46.99128" lon="-1.04458">
        <ele>133</ele>
        <time>2022-09-02T16:43:54Z</time>
      </trkpt>
      <trkpt lat="46.99096" lon="-1.04446">
        <ele>132</ele>
        <time>2022-09-02T16:44:00Z</time>
      </trkpt>
      <trkpt lat="46.9907" lon="-1.04425">
        <ele>131</ele>
        <time>2022-09-02T16:44:05Z</time>
      </trkpt>
      <trkpt lat="46.99057" lon="-1.04416">
        <ele>130</ele>
        <time>2022-09-02T16:44:08Z</time>
      </trkpt>
      <trkpt lat="46.99044" lon="-1.04411">
        <ele>129</ele>
        <time>2022-09-02T16:44:10Z</time>
      </trkpt>
      <trkpt lat="46.99032" lon="-1.04408">
        <ele>128</ele>
        <time>2022-09-02T16:44:13Z</time>
      </trkpt>
      <trkpt lat="46.99021" lon="-1.04408">
        <ele>127</ele>
        <time>2022-09-02T16:44:14Z</time>
      </trkpt>
      <trkpt lat="46.99013" lon="-1.04411">
        <ele>127</ele>
        <time>2022-09-02T16:44:16Z</time>
      </trkpt>
      <trkpt lat="46.98991" lon="-1.04427">
        <ele>125</ele>
        <time>2022-09-02T16:44:20Z</time>
      </trkpt>
      <trkpt lat="46.98981" lon="-1.04442">
        <ele>125</ele>
        <time>2022-09-02T16:44:23Z</time>
      </trkpt>
      <trkpt lat="46.98973" lon="-1.04459">
        <ele>124</ele>
        <time>2022-09-02T16:44:25Z</time>
      </trkpt>
      <trkpt lat="46.98966" lon="-1.04481">
        <ele>123</ele>
        <time>2022-09-02T16:44:28Z</time>
      </trkpt>
      <trkpt lat="46.98932" lon="-1.04663">
        <ele>116</ele>
        <time>2022-09-02T16:44:51Z</time>
      </trkpt>
      <trkpt lat="46.98922" lon="-1.04698">
        <ele>114</ele>
        <time>2022-09-02T16:44:56Z</time>
      </trkpt>
      <trkpt lat="46.98913" lon="-1.04717">
        <ele>113</ele>
        <time>2022-09-02T16:44:59Z</time>
      </trkpt>
      <trkpt lat="46.98895" lon="-1.04735">
        <ele>112</ele>
        <time>2022-09-02T16:45:03Z</time>
      </trkpt>
      <trkpt lat="46.9888" lon="-1.0474">
        <ele>111</ele>
        <time>2022-09-02T16:45:05Z</time>
      </trkpt>
      <trkpt lat="46.98783" lon="-1.04737">
        <ele>108</ele>
        <time>2022-09-02T16:45:23Z</time>
      </trkpt>
      <trkpt lat="46.98766" lon="-1.0474">
        <ele>107</ele>
        <time>2022-09-02T16:45:26Z</time>
      </trkpt>
      <trkpt lat="46.9875" lon="-1.04745">
        <ele>107</ele>
        <time>2022-09-02T16:45:28Z</time>
      </trkpt>
      <trkpt lat="46.98697" lon="-1.04773">
        <ele>109</ele>
        <time>2022-09-02T16:45:39Z</time>
      </trkpt>
      <trkpt lat="46.9867" lon="-1.04791">
        <ele>110</ele>
        <time>2022-09-02T16:45:44Z</time>
      </trkpt>
      <trkpt lat="46.98645" lon="-1.0481">
        <ele>110</ele>
        <time>2022-09-02T16:45:49Z</time>
      </trkpt>
      <trkpt lat="46.98488" lon="-1.04966">
        <ele>115</ele>
        <time>2022-09-02T16:46:23Z</time>
      </trkpt>
      <trkpt lat="46.98453" lon="-1.04993">
        <ele>115</ele>
        <time>2022-09-02T16:46:30Z</time>
      </trkpt>
      <trkpt lat="46.9842" lon="-1.05008">
        <ele>115</ele>
        <time>2022-09-02T16:46:36Z</time>
      </trkpt>
      <trkpt lat="46.98267" lon="-1.05054">
        <ele>116</ele>
        <time>2022-09-02T16:47:04Z</time>
      </trkpt>
      <trkpt lat="46.98237" lon="-1.05065">
        <ele>115</ele>
        <time>2022-09-02T16:47:09Z</time>
      </trkpt>
      <trkpt lat="46.98213" lon="-1.05078">
        <ele>115</ele>
        <time>2022-09-02T16:47:14Z</time>
      </trkpt>
      <trkpt lat="46.98162" lon="-1.05117">
        <ele>114</ele>
        <time>2022-09-02T16:47:24Z</time>
      </trkpt>
      <trkpt lat="46.98061" lon="-1.05212">
        <ele>110</ele>
        <time>2022-09-02T16:47:45Z</time>
      </trkpt>
      <trkpt lat="46.98037" lon="-1.05228">
        <ele>110</ele>
        <time>2022-09-02T16:47:50Z</time>
      </trkpt>
      <trkpt lat="46.98025" lon="-1.05231">
        <ele>110</ele>
        <time>2022-09-02T16:47:52Z</time>
      </trkpt>
      <trkpt lat="46.98011" lon="-1.05233">
        <ele>109</ele>
        <time>2022-09-02T16:47:55Z</time>
      </trkpt>
      <trkpt lat="46.97995" lon="-1.05231">
        <ele>109</ele>
        <time>2022-09-02T16:47:57Z</time>
      </trkpt>
      <trkpt lat="46.97978" lon="-1.05224">
        <ele>109</ele>
        <time>2022-09-02T16:48:01Z</time>
      </trkpt>
      <trkpt lat="46.97949" lon="-1.05206">
        <ele>109</ele>
        <time>2022-09-02T16:48:06Z</time>
      </trkpt>
      <trkpt lat="46.97879" lon="-1.05155">
        <ele>110</ele>
        <time>2022-09-02T16:48:20Z</time>
      </trkpt>
      <trkpt lat="46.97841" lon="-1.05139">
        <ele>111</ele>
        <time>2022-09-02T16:48:27Z</time>
      </trkpt>
      <trkpt lat="46.97826" lon="-1.05138">
        <ele>112</ele>
        <time>2022-09-02T16:48:30Z</time>
      </trkpt>
      <trkpt lat="46.97804" lon="-1.05141">
        <ele>113</ele>
        <time>2022-09-02T16:48:34Z</time>
      </trkpt>
      <trkpt lat="46.97786" lon="-1.05147">
        <ele>114</ele>
        <time>2022-09-02T16:48:37Z</time>
      </trkpt>
      <trkpt lat="46.97698" lon="-1.05194">
        <ele>116</ele>
        <time>2022-09-02T16:48:54Z</time>
      </trkpt>
      <trkpt lat="46.97671" lon="-1.05205">
        <ele>117</ele>
        <time>2022-09-02T16:48:59Z</time>
      </trkpt>
      <trkpt lat="46.97646" lon="-1.05207">
        <ele>118</ele>
        <time>2022-09-02T16:49:03Z</time>
      </trkpt>
      <trkpt lat="46.97489" lon="-1.05176">
        <ele>120</ele>
        <time>2022-09-02T16:49:31Z</time>
      </trkpt>
      <trkpt lat="46.97477" lon="-1.05176">
        <ele>121</ele>
        <time>2022-09-02T16:49:33Z</time>
      </trkpt>
      <trkpt lat="46.97384" lon="-1.05196">
        <ele>122</ele>
        <time>2022-09-02T16:49:50Z</time>
      </trkpt>
      <trkpt lat="46.9738" lon="-1.05195">
        <ele>122</ele>
        <time>2022-09-02T16:49:51Z</time>
      </trkpt>
      <trkpt lat="46.97379" lon="-1.05262">
        <ele>122</ele>
        <time>2022-09-02T16:49:59Z</time>
      </trkpt>
      <trkpt lat="46.97381" lon="-1.0545">
        <ele>119</ele>
        <time>2022-09-02T16:50:22Z</time>
      </trkpt>
      <trkpt lat="46.97378" lon="-1.0551">
        <ele>118</ele>
        <time>2022-09-02T16:50:29Z</time>
      </trkpt>
      <trkpt lat="46.97369" lon="-1.05562">
        <ele>118</ele>
        <time>2022-09-02T16:50:36Z</time>
      </trkpt>
      <trkpt lat="46.97361" lon="-1.05592">
        <ele>118</ele>
        <time>2022-09-02T16:50:40Z</time>
      </trkpt>
      <trkpt lat="46.97346" lon="-1.05631">
        <ele>116</ele>
        <time>2022-09-02T16:50:45Z</time>
      </trkpt>
      <trkpt lat="46.97284" lon="-1.05753">
        <ele>113</ele>
        <time>2022-09-02T16:51:03Z</time>
      </trkpt>
      <trkpt lat="46.97243" lon="-1.05838">
        <ele>112</ele>
        <time>2022-09-02T16:51:16Z</time>
      </trkpt>
      <trkpt lat="46.97198" lon="-1.05895">
        <ele>113</ele>
        <time>2022-09-02T16:51:27Z</time>
      </trkpt>
      <trkpt lat="46.97189" lon="-1.05917">
        <ele>113</ele>
        <time>2022-09-02T16:51:30Z</time>
      </trkpt>
      <trkpt lat="46.97185" lon="-1.0594">
        <ele>113</ele>
        <time>2022-09-02T16:51:33Z</time>
      </trkpt>
      <trkpt lat="46.97174" lon="-1.06165">
        <ele>117</ele>
        <time>2022-09-02T16:52:00Z</time>
      </trkpt>
      <trkpt lat="46.9717" lon="-1.06199">
        <ele>117</ele>
        <time>2022-09-02T16:52:04Z</time>
      </trkpt>
      <trkpt lat="46.97166" lon="-1.06219">
        <ele>118</ele>
        <time>2022-09-02T16:52:07Z</time>
      </trkpt>
      <trkpt lat="46.97159" lon="-1.06239">
        <ele>118</ele>
        <time>2022-09-02T16:52:09Z</time>
      </trkpt>
      <trkpt lat="46.97049" lon="-1.06503">
        <ele>121</ele>
        <time>2022-09-02T16:52:47Z</time>
      </trkpt>
      <trkpt lat="46.97036" lon="-1.06546">
        <ele>122</ele>
        <time>2022-09-02T16:52:53Z</time>
      </trkpt>
      <trkpt lat="46.9702" lon="-1.06689">
        <ele>124</ele>
        <time>2022-09-02T16:53:10Z</time>
      </trkpt>
      <trkpt lat="46.97007" lon="-1.06751">
        <ele>124</ele>
        <time>2022-09-02T16:53:18Z</time>
      </trkpt>
      <trkpt lat="46.96968" lon="-1.06882">
        <ele>126</ele>
        <time>2022-09-02T16:53:36Z</time>
      </trkpt>
      <trkpt lat="46.96949" lon="-1.06948">
        <ele>127</ele>
        <time>2022-09-02T16:53:44Z</time>
      </trkpt>
      <trkpt lat="46.96944" lon="-1.06976">
        <ele>127</ele>
        <time>2022-09-02T16:53:48Z</time>
      </trkpt>
      <trkpt lat="46.96944" lon="-1.0703">
        <ele>126</ele>
        <time>2022-09-02T16:53:54Z</time>
      </trkpt>
      <trkpt lat="46.96965" lon="-1.07306">
        <ele>122</ele>
        <time>2022-09-02T16:54:28Z</time>
      </trkpt>
      <trkpt lat="46.96967" lon="-1.07375">
        <ele>121</ele>
        <time>2022-09-02T16:54:36Z</time>
      </trkpt>
      <trkpt lat="46.9696" lon="-1.07496">
        <ele>119</ele>
        <time>2022-09-02T16:54:51Z</time>
      </trkpt>
      <trkpt lat="46.96957" lon="-1.07688">
        <ele>117</ele>
        <time>2022-09-02T16:55:14Z</time>
      </trkpt>
      <trkpt lat="46.96946" lon="-1.078">
        <ele>116</ele>
        <time>2022-09-02T16:55:28Z</time>
      </trkpt>
      <trkpt lat="46.96939" lon="-1.07845">
        <ele>116</ele>
        <time>2022-09-02T16:55:34Z</time>
      </trkpt>
      <trkpt lat="46.96929" lon="-1.07894">
        <ele>115</ele>
        <time>2022-09-02T16:55:40Z</time>
      </trkpt>
      <trkpt lat="46.96917" lon="-1.07942">
        <ele>115</ele>
        <time>2022-09-02T16:55:46Z</time>
      </trkpt>
      <trkpt lat="46.96886" lon="-1.08044">
        <ele>114</ele>
        <time>2022-09-02T16:56:00Z</time>
      </trkpt>
      <trkpt lat="46.96867" lon="-1.08113">
        <ele>114</ele>
        <time>2022-09-02T16:56:09Z</time>
      </trkpt>
      <trkpt lat="46.96862" lon="-1.08155">
        <ele>113</ele>
        <time>2022-09-02T16:56:14Z</time>
      </trkpt>
      <trkpt lat="46.96856" lon="-1.08254">
        <ele>112</ele>
        <time>2022-09-02T16:56:26Z</time>
      </trkpt>
      <trkpt lat="46.96857" lon="-1.08293">
        <ele>112</ele>
        <time>2022-09-02T16:56:31Z</time>
      </trkpt>
      <trkpt lat="46.9686" lon="-1.08322">
        <ele>111</ele>
        <time>2022-09-02T16:56:34Z</time>
      </trkpt>
      <trkpt lat="46.96865" lon="-1.08347">
        <ele>111</ele>
        <time>2022-09-02T16:56:38Z</time>
      </trkpt>
      <trkpt lat="46.96884" lon="-1.0842">
        <ele>110</ele>
        <time>2022-09-02T16:56:47Z</time>
      </trkpt>
      <trkpt lat="46.96906" lon="-1.08493">
        <ele>111</ele>
        <time>2022-09-02T16:56:57Z</time>
      </trkpt>
      <trkpt lat="46.96921" lon="-1.08533">
        <ele>112</ele>
        <time>2022-09-02T16:57:02Z</time>
      </trkpt>
      <trkpt lat="46.96943" lon="-1.08584">
        <ele>112</ele>
        <time>2022-09-02T16:57:10Z</time>
      </trkpt>
      <trkpt lat="46.96959" lon="-1.08607">
        <ele>111</ele>
        <time>2022-09-02T16:57:14Z</time>
      </trkpt>
      <trkpt lat="46.96969" lon="-1.08619">
        <ele>111</ele>
        <time>2022-09-02T16:57:16Z</time>
      </trkpt>
      <trkpt lat="46.96982" lon="-1.0863">
        <ele>111</ele>
        <time>2022-09-02T16:57:19Z</time>
      </trkpt>
      <trkpt lat="46.97041" lon="-1.08673">
        <ele>109</ele>
        <time>2022-09-02T16:57:30Z</time>
      </trkpt>
      <trkpt lat="46.97059" lon="-1.08684">
        <ele>107</ele>
        <time>2022-09-02T16:57:34Z</time>
      </trkpt>
      <trkpt lat="46.97073" lon="-1.08688">
        <ele>106</ele>
        <time>2022-09-02T16:57:36Z</time>
      </trkpt>
      <trkpt lat="46.97088" lon="-1.08689">
        <ele>105</ele>
        <time>2022-09-02T16:57:39Z</time>
      </trkpt>
      <trkpt lat="46.97162" lon="-1.08686">
        <ele>100</ele>
        <time>2022-09-02T16:57:52Z</time>
      </trkpt>
      <trkpt lat="46.97181" lon="-1.08693">
        <ele>99</ele>
        <time>2022-09-02T16:57:56Z</time>
      </trkpt>
      <trkpt lat="46.9719" lon="-1.08702">
        <ele>99</ele>
        <time>2022-09-02T16:57:58Z</time>
      </trkpt>
      <trkpt lat="46.97197" lon="-1.08713">
        <ele>99</ele>
        <time>2022-09-02T16:57:59Z</time>
      </trkpt>
      <trkpt lat="46.97204" lon="-1.08727">
        <ele>99</ele>
        <time>2022-09-02T16:58:01Z</time>
      </trkpt>
      <trkpt lat="46.97209" lon="-1.08744">
        <ele>98</ele>
        <time>2022-09-02T16:58:04Z</time>
      </trkpt>
      <trkpt lat="46.9722" lon="-1.08798">
        <ele>98</ele>
        <time>2022-09-02T16:58:11Z</time>
      </trkpt>
      <trkpt lat="46.97224" lon="-1.0884">
        <ele>97</ele>
        <time>2022-09-02T16:58:16Z</time>
      </trkpt>
      <trkpt lat="46.97223" lon="-1.08913">
        <ele>95</ele>
        <time>2022-09-02T16:58:25Z</time>
      </trkpt>
      <trkpt lat="46.97219" lon="-1.08976">
        <ele>93</ele>
        <time>2022-09-02T16:58:32Z</time>
      </trkpt>
      <trkpt lat="46.972" lon="-1.09072">
        <ele>92</ele>
        <time>2022-09-02T16:58:44Z</time>
      </trkpt>
      <trkpt lat="46.97188" lon="-1.09119">
        <ele>90</ele>
        <time>2022-09-02T16:58:50Z</time>
      </trkpt>
      <trkpt lat="46.97182" lon="-1.09137">
        <ele>89</ele>
        <time>2022-09-02T16:58:53Z</time>
      </trkpt>
      <trkpt lat="46.97172" lon="-1.09155">
        <ele>87</ele>
        <time>2022-09-02T16:58:56Z</time>
      </trkpt>
      <trkpt lat="46.9716" lon="-1.0917">
        <ele>86</ele>
        <time>2022-09-02T16:58:59Z</time>
      </trkpt>
      <trkpt lat="46.97102" lon="-1.09219">
        <ele>86</ele>
        <time>2022-09-02T16:59:10Z</time>
      </trkpt>
      <trkpt lat="46.97094" lon="-1.09226">
        <ele>86</ele>
        <time>2022-09-02T16:59:12Z</time>
      </trkpt>
      <trkpt lat="46.97042" lon="-1.09269">
        <ele>90</ele>
        <time>2022-09-02T16:59:23Z</time>
      </trkpt>
      <trkpt lat="46.97036" lon="-1.09279">
        <ele>91</ele>
        <time>2022-09-02T16:59:24Z</time>
      </trkpt>
      <trkpt lat="46.97027" lon="-1.09298">
        <ele>92</ele>
        <time>2022-09-02T16:59:27Z</time>
      </trkpt>
      <trkpt lat="46.97005" lon="-1.09358">
        <ele>94</ele>
        <time>2022-09-02T16:59:35Z</time>
      </trkpt>
      <trkpt lat="46.96998" lon="-1.09382">
        <ele>93</ele>
        <time>2022-09-02T16:59:39Z</time>
      </trkpt>
      <trkpt lat="46.96996" lon="-1.09405">
        <ele>93</ele>
        <time>2022-09-02T16:59:41Z</time>
      </trkpt>
      <trkpt lat="46.96993" lon="-1.09461">
        <ele>93</ele>
        <time>2022-09-02T16:59:48Z</time>
      </trkpt>
      <trkpt lat="46.96989" lon="-1.09477">
        <ele>93</ele>
        <time>2022-09-02T16:59:50Z</time>
      </trkpt>
      <trkpt lat="46.96983" lon="-1.09489">
        <ele>93</ele>
        <time>2022-09-02T16:59:52Z</time>
      </trkpt>
      <trkpt lat="46.96944" lon="-1.09518">
        <ele>95</ele>
        <time>2022-09-02T17:00:00Z</time>
      </trkpt>
      <trkpt lat="46.96934" lon="-1.09529">
        <ele>96</ele>
        <time>2022-09-02T17:00:02Z</time>
      </trkpt>
      <trkpt lat="46.96926" lon="-1.09544">
        <ele>96</ele>
        <time>2022-09-02T17:00:04Z</time>
      </trkpt>
      <trkpt lat="46.96922" lon="-1.0956">
        <ele>97</ele>
        <time>2022-09-02T17:00:07Z</time>
      </trkpt>
      <trkpt lat="46.96918" lon="-1.09618">
        <ele>98</ele>
        <time>2022-09-02T17:00:14Z</time>
      </trkpt>
      <trkpt lat="46.96915" lon="-1.09638">
        <ele>98</ele>
        <time>2022-09-02T17:00:16Z</time>
      </trkpt>
      <trkpt lat="46.96898" lon="-1.09704">
        <ele>100</ele>
        <time>2022-09-02T17:00:25Z</time>
      </trkpt>
      <trkpt lat="46.96883" lon="-1.09739">
        <ele>101</ele>
        <time>2022-09-02T17:00:30Z</time>
      </trkpt>
      <trkpt lat="46.96849" lon="-1.09805">
        <ele>103</ele>
        <time>2022-09-02T17:00:40Z</time>
      </trkpt>
      <trkpt lat="46.96818" lon="-1.0986">
        <ele>104</ele>
        <time>2022-09-02T17:00:48Z</time>
      </trkpt>
      <trkpt lat="46.96803" lon="-1.0989">
        <ele>103</ele>
        <time>2022-09-02T17:00:53Z</time>
      </trkpt>
      <trkpt lat="46.96751" lon="-1.10013">
        <ele>102</ele>
        <time>2022-09-02T17:01:10Z</time>
      </trkpt>
      <trkpt lat="46.96672" lon="-1.10169">
        <ele>99</ele>
        <time>2022-09-02T17:01:34Z</time>
      </trkpt>
      <trkpt lat="46.96658" lon="-1.10194">
        <ele>99</ele>
        <time>2022-09-02T17:01:38Z</time>
      </trkpt>
      <trkpt lat="46.96631" lon="-1.10232">
        <ele>97</ele>
        <time>2022-09-02T17:01:45Z</time>
      </trkpt>
      <trkpt lat="46.96427" lon="-1.10654">
        <ele>95</ele>
        <time>2022-09-02T17:02:47Z</time>
      </trkpt>
      <trkpt lat="46.96412" lon="-1.10689">
        <ele>96</ele>
        <time>2022-09-02T17:02:52Z</time>
      </trkpt>
      <trkpt lat="46.96403" lon="-1.1072">
        <ele>97</ele>
        <time>2022-09-02T17:02:57Z</time>
      </trkpt>
      <trkpt lat="46.96397" lon="-1.10751">
        <ele>98</ele>
        <time>2022-09-02T17:03:00Z</time>
      </trkpt>
      <trkpt lat="46.96394" lon="-1.10787">
        <ele>99</ele>
        <time>2022-09-02T17:03:05Z</time>
      </trkpt>
      <trkpt lat="46.96403" lon="-1.10961">
        <ele>104</ele>
        <time>2022-09-02T17:03:26Z</time>
      </trkpt>
      <trkpt lat="46.96408" lon="-1.11072">
        <ele>103</ele>
        <time>2022-09-02T17:03:40Z</time>
      </trkpt>
      <trkpt lat="46.96409" lon="-1.11125">
        <ele>104</ele>
        <time>2022-09-02T17:03:46Z</time>
      </trkpt>
      <trkpt lat="46.96407" lon="-1.11165">
        <ele>105</ele>
        <time>2022-09-02T17:03:51Z</time>
      </trkpt>
      <trkpt lat="46.96373" lon="-1.11372">
        <ele>108</ele>
        <time>2022-09-02T17:04:17Z</time>
      </trkpt>
      <trkpt lat="46.96368" lon="-1.11387">
        <ele>108</ele>
        <time>2022-09-02T17:04:19Z</time>
      </trkpt>
      <trkpt lat="46.96353" lon="-1.11414">
        <ele>108</ele>
        <time>2022-09-02T17:04:23Z</time>
      </trkpt>
      <trkpt lat="46.96358" lon="-1.1142">
        <ele>108</ele>
        <time>2022-09-02T17:04:24Z</time>
      </trkpt>
      <trkpt lat="46.96358" lon="-1.11425">
        <ele>108</ele>
        <time>2022-09-02T17:04:25Z</time>
      </trkpt>
      <trkpt lat="46.96354" lon="-1.11432">
        <ele>108</ele>
        <time>2022-09-02T17:04:26Z</time>
      </trkpt>
      <trkpt lat="46.96348" lon="-1.11431">
        <ele>108</ele>
        <time>2022-09-02T17:04:27Z</time>
      </trkpt>
      <trkpt lat="46.96326" lon="-1.11463">
        <ele>108</ele>
        <time>2022-09-02T17:04:32Z</time>
      </trkpt>
      <trkpt lat="46.96314" lon="-1.11488">
        <ele>108</ele>
        <time>2022-09-02T17:04:36Z</time>
      </trkpt>
      <trkpt lat="46.963" lon="-1.11525">
        <ele>107</ele>
        <time>2022-09-02T17:04:41Z</time>
      </trkpt>
      <trkpt lat="46.96271" lon="-1.11644">
        <ele>107</ele>
        <time>2022-09-02T17:04:57Z</time>
      </trkpt>
      <trkpt lat="46.9625" lon="-1.11707">
        <ele>107</ele>
        <time>2022-09-02T17:05:05Z</time>
      </trkpt>
      <trkpt lat="46.96235" lon="-1.11682">
        <ele>107</ele>
        <time>2022-09-02T17:05:09Z</time>
      </trkpt>
      <trkpt lat="46.96194" lon="-1.11729">
        <ele>107</ele>
        <time>2022-09-02T17:05:18Z</time>
      </trkpt>
      <trkpt lat="46.96146" lon="-1.11782">
        <ele>107</ele>
        <time>2022-09-02T17:05:29Z</time>
      </trkpt>
      <trkpt lat="46.96152" lon="-1.11822">
        <ele>107</ele>
        <time>2022-09-02T17:05:34Z</time>
      </trkpt>
      <trkpt lat="46.96154" lon="-1.11851">
        <ele>107</ele>
        <time>2022-09-02T17:05:38Z</time>
      </trkpt>
      <trkpt lat="46.96147" lon="-1.11961">
        <ele>106</ele>
        <time>2022-09-02T17:05:51Z</time>
      </trkpt>
      <trkpt lat="46.96145" lon="-1.12018">
        <ele>106</ele>
        <time>2022-09-02T17:05:58Z</time>
      </trkpt>
      <trkpt lat="46.96146" lon="-1.12033">
        <ele>106</ele>
        <time>2022-09-02T17:06:00Z</time>
      </trkpt>
      <trkpt lat="46.95952" lon="-1.12097">
        <ele>105</ele>
        <time>2022-09-02T17:06:35Z</time>
      </trkpt>
      <trkpt lat="46.95783" lon="-1.12157">
        <ele>104</ele>
        <time>2022-09-02T17:07:06Z</time>
      </trkpt>
      <trkpt lat="46.94969" lon="-1.12435">
        <ele>104</ele>
        <time>2022-09-02T17:09:35Z</time>
      </trkpt>
      <trkpt lat="46.94463" lon="-1.12604">
        <ele>94</ele>
        <time>2022-09-02T17:11:07Z</time>
      </trkpt>
      <trkpt lat="46.93812" lon="-1.12817">
        <ele>101</ele>
        <time>2022-09-02T17:13:06Z</time>
      </trkpt>
      <trkpt lat="46.93783" lon="-1.12824">
        <ele>101</ele>
        <time>2022-09-02T17:13:11Z</time>
      </trkpt>
      <trkpt lat="46.93749" lon="-1.12825">
        <ele>101</ele>
        <time>2022-09-02T17:13:17Z</time>
      </trkpt>
      <trkpt lat="46.93211" lon="-1.12784">
        <ele>93</ele>
        <time>2022-09-02T17:14:53Z</time>
      </trkpt>
      <trkpt lat="46.93175" lon="-1.12783">
        <ele>92</ele>
        <time>2022-09-02T17:14:59Z</time>
      </trkpt>
      <trkpt lat="46.93141" lon="-1.12789">
        <ele>92</ele>
        <time>2022-09-02T17:15:06Z</time>
      </trkpt>
      <trkpt lat="46.93097" lon="-1.12809">
        <ele>92</ele>
        <time>2022-09-02T17:15:14Z</time>
      </trkpt>
      <trkpt lat="46.92904" lon="-1.12909">
        <ele>89</ele>
        <time>2022-09-02T17:15:50Z</time>
      </trkpt>
      <trkpt lat="46.92878" lon="-1.12924">
        <ele>88</ele>
        <time>2022-09-02T17:15:55Z</time>
      </trkpt>
      <trkpt lat="46.92856" lon="-1.1294">
        <ele>87</ele>
        <time>2022-09-02T17:15:59Z</time>
      </trkpt>
      <trkpt lat="46.92831" lon="-1.12968">
        <ele>86</ele>
        <time>2022-09-02T17:16:05Z</time>
      </trkpt>
      <trkpt lat="46.92813" lon="-1.12993">
        <ele>86</ele>
        <time>2022-09-02T17:16:09Z</time>
      </trkpt>
      <trkpt lat="46.92741" lon="-1.13124">
        <ele>87</ele>
        <time>2022-09-02T17:16:30Z</time>
      </trkpt>
      <trkpt lat="46.92724" lon="-1.13151">
        <ele>87</ele>
        <time>2022-09-02T17:16:34Z</time>
      </trkpt>
      <trkpt lat="46.92704" lon="-1.13175">
        <ele>88</ele>
        <time>2022-09-02T17:16:39Z</time>
      </trkpt>
      <trkpt lat="46.92675" lon="-1.13202">
        <ele>90</ele>
        <time>2022-09-02T17:16:45Z</time>
      </trkpt>
      <trkpt lat="46.92653" lon="-1.1322">
        <ele>90</ele>
        <time>2022-09-02T17:16:50Z</time>
      </trkpt>
      <trkpt lat="46.92626" lon="-1.13233">
        <ele>91</ele>
        <time>2022-09-02T17:16:55Z</time>
      </trkpt>
      <trkpt lat="46.92607" lon="-1.13238">
        <ele>91</ele>
        <time>2022-09-02T17:16:58Z</time>
      </trkpt>
      <trkpt lat="46.9257" lon="-1.1324">
        <ele>91</ele>
        <time>2022-09-02T17:17:05Z</time>
      </trkpt>
      <trkpt lat="46.9254" lon="-1.13237">
        <ele>90</ele>
        <time>2022-09-02T17:17:10Z</time>
      </trkpt>
      <trkpt lat="46.92501" lon="-1.13226">
        <ele>89</ele>
        <time>2022-09-02T17:17:17Z</time>
      </trkpt>
      <trkpt lat="46.92342" lon="-1.13164">
        <ele>89</ele>
        <time>2022-09-02T17:17:46Z</time>
      </trkpt>
      <trkpt lat="46.92279" lon="-1.13142">
        <ele>88</ele>
        <time>2022-09-02T17:17:58Z</time>
      </trkpt>
      <trkpt lat="46.92261" lon="-1.13139">
        <ele>88</ele>
        <time>2022-09-02T17:18:01Z</time>
      </trkpt>
      <trkpt lat="46.92228" lon="-1.13141">
        <ele>87</ele>
        <time>2022-09-02T17:18:07Z</time>
      </trkpt>
      <trkpt lat="46.92155" lon="-1.13153">
        <ele>87</ele>
        <time>2022-09-02T17:18:20Z</time>
      </trkpt>
      <trkpt lat="46.92119" lon="-1.13162">
        <ele>88</ele>
        <time>2022-09-02T17:18:27Z</time>
      </trkpt>
      <trkpt lat="46.92098" lon="-1.13171">
        <ele>88</ele>
        <time>2022-09-02T17:18:30Z</time>
      </trkpt>
      <trkpt lat="46.91918" lon="-1.13271">
        <ele>88</ele>
        <time>2022-09-02T17:19:05Z</time>
      </trkpt>
      <trkpt lat="46.91892" lon="-1.13288">
        <ele>87</ele>
        <time>2022-09-02T17:19:10Z</time>
      </trkpt>
      <trkpt lat="46.91789" lon="-1.1338">
        <ele>87</ele>
        <time>2022-09-02T17:19:31Z</time>
      </trkpt>
      <trkpt lat="46.9176" lon="-1.13405">
        <ele>87</ele>
        <time>2022-09-02T17:19:37Z</time>
      </trkpt>
      <trkpt lat="46.91727" lon="-1.13429">
        <ele>88</ele>
        <time>2022-09-02T17:19:44Z</time>
      </trkpt>
      <trkpt lat="46.91675" lon="-1.13455">
        <ele>88</ele>
        <time>2022-09-02T17:19:54Z</time>
      </trkpt>
      <trkpt lat="46.91522" lon="-1.13499">
        <ele>85</ele>
        <time>2022-09-02T17:20:21Z</time>
      </trkpt>
      <trkpt lat="46.91487" lon="-1.13501">
        <ele>85</ele>
        <time>2022-09-02T17:20:28Z</time>
      </trkpt>
      <trkpt lat="46.91469" lon="-1.13497">
        <ele>84</ele>
        <time>2022-09-02T17:20:31Z</time>
      </trkpt>
      <trkpt lat="46.91451" lon="-1.13489">
        <ele>84</ele>
        <time>2022-09-02T17:20:34Z</time>
      </trkpt>
      <trkpt lat="46.9132" lon="-1.13399">
        <ele>81</ele>
        <time>2022-09-02T17:21:00Z</time>
      </trkpt>
      <trkpt lat="46.91258" lon="-1.13359">
        <ele>80</ele>
        <time>2022-09-02T17:21:12Z</time>
      </trkpt>
      <trkpt lat="46.91216" lon="-1.13347">
        <ele>80</ele>
        <time>2022-09-02T17:21:20Z</time>
      </trkpt>
      <trkpt lat="46.91067" lon="-1.13303">
        <ele>81</ele>
        <time>2022-09-02T17:21:47Z</time>
      </trkpt>
      <trkpt lat="46.9104" lon="-1.133">
        <ele>82</ele>
        <time>2022-09-02T17:21:51Z</time>
      </trkpt>
      <trkpt lat="46.91007" lon="-1.13302">
        <ele>82</ele>
        <time>2022-09-02T17:21:57Z</time>
      </trkpt>
      <trkpt lat="46.90975" lon="-1.13313">
        <ele>83</ele>
        <time>2022-09-02T17:22:03Z</time>
      </trkpt>
      <trkpt lat="46.90849" lon="-1.13387">
        <ele>86</ele>
        <time>2022-09-02T17:22:27Z</time>
      </trkpt>
      <trkpt lat="46.90775" lon="-1.13417">
        <ele>87</ele>
        <time>2022-09-02T17:22:41Z</time>
      </trkpt>
      <trkpt lat="46.90766" lon="-1.13364">
        <ele>87</ele>
        <time>2022-09-02T17:22:48Z</time>
      </trkpt>
      <trkpt lat="46.90762" lon="-1.13345">
        <ele>87</ele>
        <time>2022-09-02T17:22:50Z</time>
      </trkpt>
      <trkpt lat="46.90756" lon="-1.1333">
        <ele>87</ele>
        <time>2022-09-02T17:22:52Z</time>
      </trkpt>
      <trkpt lat="46.90631" lon="-1.13102">
        <ele>79</ele>
        <time>2022-09-02T17:23:28Z</time>
      </trkpt>
      <trkpt lat="46.90618" lon="-1.13064">
        <ele>78</ele>
        <time>2022-09-02T17:23:33Z</time>
      </trkpt>
      <trkpt lat="46.90614" lon="-1.13047">
        <ele>78</ele>
        <time>2022-09-02T17:23:35Z</time>
      </trkpt>
      <trkpt lat="46.90613" lon="-1.13026">
        <ele>79</ele>
        <time>2022-09-02T17:23:38Z</time>
      </trkpt>
      <trkpt lat="46.90614" lon="-1.13003">
        <ele>79</ele>
        <time>2022-09-02T17:23:40Z</time>
      </trkpt>
      <trkpt lat="46.90622" lon="-1.1294">
        <ele>80</ele>
        <time>2022-09-02T17:23:48Z</time>
      </trkpt>
      <trkpt lat="46.9064" lon="-1.12699">
        <ele>84</ele>
        <time>2022-09-02T17:24:18Z</time>
      </trkpt>
      <trkpt lat="46.90712" lon="-1.11651">
        <ele>81</ele>
        <time>2022-09-02T17:26:26Z</time>
      </trkpt>
      <trkpt lat="46.90753" lon="-1.11099">
        <ele>90</ele>
        <time>2022-09-02T17:27:33Z</time>
      </trkpt>
      <trkpt lat="46.90841" lon="-1.10317">
        <ele>97</ele>
        <time>2022-09-02T17:29:09Z</time>
      </trkpt>
      <trkpt lat="46.90871" lon="-1.10088">
        <ele>94</ele>
        <time>2022-09-02T17:29:38Z</time>
      </trkpt>
      <trkpt lat="46.90867" lon="-1.10086">
        <ele>94</ele>
        <time>2022-09-02T17:29:39Z</time>
      </trkpt>
      <trkpt lat="46.90861" lon="-1.10076">
        <ele>94</ele>
        <time>2022-09-02T17:29:40Z</time>
      </trkpt>
      <trkpt lat="46.90859" lon="-1.10064">
        <ele>93</ele>
        <time>2022-09-02T17:29:42Z</time>
      </trkpt>
      <trkpt lat="46.90738" lon="-1.10051">
        <ele>90</ele>
        <time>2022-09-02T17:30:03Z</time>
      </trkpt>
      <trkpt lat="46.90696" lon="-1.10041">
        <ele>89</ele>
        <time>2022-09-02T17:30:11Z</time>
      </trkpt>
      <trkpt lat="46.90653" lon="-1.10023">
        <ele>89</ele>
        <time>2022-09-02T17:30:19Z</time>
      </trkpt>
      <trkpt lat="46.90629" lon="-1.10009">
        <ele>88</ele>
        <time>2022-09-02T17:30:23Z</time>
      </trkpt>
      <trkpt lat="46.90609" lon="-1.09994">
        <ele>88</ele>
        <time>2022-09-02T17:30:27Z</time>
      </trkpt>
      <trkpt lat="46.90588" lon="-1.09978">
        <ele>87</ele>
        <time>2022-09-02T17:30:32Z</time>
      </trkpt>
      <trkpt lat="46.90549" lon="-1.09939">
        <ele>87</ele>
        <time>2022-09-02T17:30:40Z</time>
      </trkpt>
      <trkpt lat="46.9051" lon="-1.09885">
        <ele>86</ele>
        <time>2022-09-02T17:30:50Z</time>
      </trkpt>
      <trkpt lat="46.90479" lon="-1.09829">
        <ele>86</ele>
        <time>2022-09-02T17:30:58Z</time>
      </trkpt>
      <trkpt lat="46.90449" lon="-1.09756">
        <ele>84</ele>
        <time>2022-09-02T17:31:09Z</time>
      </trkpt>
      <trkpt lat="46.90438" lon="-1.0972">
        <ele>84</ele>
        <time>2022-09-02T17:31:13Z</time>
      </trkpt>
      <trkpt lat="46.90424" lon="-1.09646">
        <ele>84</ele>
        <time>2022-09-02T17:31:23Z</time>
      </trkpt>
      <trkpt lat="46.90419" lon="-1.09605">
        <ele>85</ele>
        <time>2022-09-02T17:31:28Z</time>
      </trkpt>
      <trkpt lat="46.90416" lon="-1.09566">
        <ele>85</ele>
        <time>2022-09-02T17:31:33Z</time>
      </trkpt>
      <trkpt lat="46.90411" lon="-1.094">
        <ele>87</ele>
        <time>2022-09-02T17:31:53Z</time>
      </trkpt>
      <trkpt lat="46.90408" lon="-1.09369">
        <ele>87</ele>
        <time>2022-09-02T17:31:57Z</time>
      </trkpt>
      <trkpt lat="46.90398" lon="-1.09364">
        <ele>87</ele>
        <time>2022-09-02T17:31:59Z</time>
      </trkpt>
      <trkpt lat="46.90393" lon="-1.09351">
        <ele>86</ele>
        <time>2022-09-02T17:32:00Z</time>
      </trkpt>
      <trkpt lat="46.90236" lon="-1.094">
        <ele>83</ele>
        <time>2022-09-02T17:32:29Z</time>
      </trkpt>
      <trkpt lat="46.90214" lon="-1.09404">
        <ele>83</ele>
        <time>2022-09-02T17:32:33Z</time>
      </trkpt>
      <trkpt lat="46.90186" lon="-1.09405">
        <ele>83</ele>
        <time>2022-09-02T17:32:38Z</time>
      </trkpt>
      <trkpt lat="46.89704" lon="-1.09316">
        <ele>86</ele>
        <time>2022-09-02T17:34:04Z</time>
      </trkpt>
      <trkpt lat="46.89689" lon="-1.09315">
        <ele>86</ele>
        <time>2022-09-02T17:34:07Z</time>
      </trkpt>
      <trkpt lat="46.8966" lon="-1.09317">
        <ele>86</ele>
        <time>2022-09-02T17:34:12Z</time>
      </trkpt>
      <trkpt lat="46.8963" lon="-1.09327">
        <ele>87</ele>
        <time>2022-09-02T17:34:18Z</time>
      </trkpt>
      <trkpt lat="46.89529" lon="-1.09382">
        <ele>90</ele>
        <time>2022-09-02T17:34:37Z</time>
      </trkpt>
      <trkpt lat="46.89335" lon="-1.09496">
        <ele>89</ele>
        <time>2022-09-02T17:35:14Z</time>
      </trkpt>
      <trkpt lat="46.89305" lon="-1.09519">
        <ele>89</ele>
        <time>2022-09-02T17:35:20Z</time>
      </trkpt>
      <trkpt lat="46.89062" lon="-1.09809">
        <ele>91</ele>
        <time>2022-09-02T17:36:16Z</time>
      </trkpt>
      <trkpt lat="46.8881" lon="-1.10124">
        <ele>90</ele>
        <time>2022-09-02T17:37:15Z</time>
      </trkpt>
      <trkpt lat="46.88795" lon="-1.10148">
        <ele>91</ele>
        <time>2022-09-02T17:37:19Z</time>
      </trkpt>
      <trkpt lat="46.88777" lon="-1.10185">
        <ele>90</ele>
        <time>2022-09-02T17:37:24Z</time>
      </trkpt>
      <trkpt lat="46.88752" lon="-1.10256">
        <ele>89</ele>
        <time>2022-09-02T17:37:34Z</time>
      </trkpt>
      <trkpt lat="46.88742" lon="-1.10277">
        <ele>89</ele>
        <time>2022-09-02T17:37:37Z</time>
      </trkpt>
      <trkpt lat="46.88727" lon="-1.10299">
        <ele>89</ele>
        <time>2022-09-02T17:37:41Z</time>
      </trkpt>
      <trkpt lat="46.88709" lon="-1.10317">
        <ele>89</ele>
        <time>2022-09-02T17:37:45Z</time>
      </trkpt>
      <trkpt lat="46.88684" lon="-1.10331">
        <ele>89</ele>
        <time>2022-09-02T17:37:49Z</time>
      </trkpt>
      <trkpt lat="46.88668" lon="-1.10335">
        <ele>89</ele>
        <time>2022-09-02T17:37:52Z</time>
      </trkpt>
      <trkpt lat="46.88653" lon="-1.10335">
        <ele>89</ele>
        <time>2022-09-02T17:37:55Z</time>
      </trkpt>
      <trkpt lat="46.8863" lon="-1.1033">
        <ele>89</ele>
        <time>2022-09-02T17:37:59Z</time>
      </trkpt>
      <trkpt lat="46.88604" lon="-1.10314">
        <ele>89</ele>
        <time>2022-09-02T17:38:04Z</time>
      </trkpt>
      <trkpt lat="46.88579" lon="-1.10296">
        <ele>89</ele>
        <time>2022-09-02T17:38:09Z</time>
      </trkpt>
      <trkpt lat="46.88539" lon="-1.10263">
        <ele>88</ele>
        <time>2022-09-02T17:38:17Z</time>
      </trkpt>
      <trkpt lat="46.88508" lon="-1.10238">
        <ele>87</ele>
        <time>2022-09-02T17:38:24Z</time>
      </trkpt>
      <trkpt lat="46.88454" lon="-1.10206">
        <ele>86</ele>
        <time>2022-09-02T17:38:34Z</time>
      </trkpt>
      <trkpt lat="46.88421" lon="-1.10191">
        <ele>85</ele>
        <time>2022-09-02T17:38:40Z</time>
      </trkpt>
      <trkpt lat="46.88121" lon="-1.10094">
        <ele>74</ele>
        <time>2022-09-02T17:39:35Z</time>
      </trkpt>
      <trkpt lat="46.88105" lon="-1.10089">
        <ele>75</ele>
        <time>2022-09-02T17:39:38Z</time>
      </trkpt>
      <trkpt lat="46.88071" lon="-1.10078">
        <ele>76</ele>
        <time>2022-09-02T17:39:44Z</time>
      </trkpt>
      <trkpt lat="46.88039" lon="-1.10072">
        <ele>78</ele>
        <time>2022-09-02T17:39:50Z</time>
      </trkpt>
      <trkpt lat="46.87852" lon="-1.10062">
        <ele>86</ele>
        <time>2022-09-02T17:40:23Z</time>
      </trkpt>
      <trkpt lat="46.87717" lon="-1.10057">
        <ele>90</ele>
        <time>2022-09-02T17:40:47Z</time>
      </trkpt>
      <trkpt lat="46.87699" lon="-1.10054">
        <ele>91</ele>
        <time>2022-09-02T17:40:50Z</time>
      </trkpt>
      <trkpt lat="46.8681" lon="-1.09775">
        <ele>94</ele>
        <time>2022-09-02T17:43:32Z</time>
      </trkpt>
      <trkpt lat="46.86208" lon="-1.09586">
        <ele>79</ele>
        <time>2022-09-02T17:45:22Z</time>
      </trkpt>
      <trkpt lat="46.86329" lon="-1.0934">
        <ele>82</ele>
        <time>2022-09-02T17:45:58Z</time>
      </trkpt>
      <trkpt lat="46.8636" lon="-1.09293">
        <ele>84</ele>
        <time>2022-09-02T17:46:06Z</time>
      </trkpt>
      <trkpt lat="46.86377" lon="-1.09275">
        <ele>85</ele>
        <time>2022-09-02T17:46:10Z</time>
      </trkpt>
      <trkpt lat="46.87102" lon="-1.0865">
        <ele>94</ele>
        <time>2022-09-02T17:48:40Z</time>
      </trkpt>
      <trkpt lat="46.8718" lon="-1.08581">
        <ele>95</ele>
        <time>2022-09-02T17:48:56Z</time>
      </trkpt>
      <trkpt lat="46.87198" lon="-1.08561">
        <ele>95</ele>
        <time>2022-09-02T17:49:00Z</time>
      </trkpt>
      <trkpt lat="46.87213" lon="-1.0854">
        <ele>96</ele>
        <time>2022-09-02T17:49:04Z</time>
      </trkpt>
      <trkpt lat="46.8723" lon="-1.08508">
        <ele>96</ele>
        <time>2022-09-02T17:49:09Z</time>
      </trkpt>
      <trkpt lat="46.87239" lon="-1.08489">
        <ele>96</ele>
        <time>2022-09-02T17:49:11Z</time>
      </trkpt>
      <trkpt lat="46.87278" lon="-1.08372">
        <ele>96</ele>
        <time>2022-09-02T17:49:27Z</time>
      </trkpt>
      <trkpt lat="46.87405" lon="-1.07982">
        <ele>91</ele>
        <time>2022-09-02T17:50:20Z</time>
      </trkpt>
      <trkpt lat="46.8751" lon="-1.07666">
        <ele>85</ele>
        <time>2022-09-02T17:51:03Z</time>
      </trkpt>
      <trkpt lat="46.87523" lon="-1.07621">
        <ele>84</ele>
        <time>2022-09-02T17:51:09Z</time>
      </trkpt>
      <trkpt lat="46.87532" lon="-1.07565">
        <ele>83</ele>
        <time>2022-09-02T17:51:16Z</time>
      </trkpt>
      <trkpt lat="46.87558" lon="-1.07329">
        <ele>82</ele>
        <time>2022-09-02T17:51:45Z</time>
      </trkpt>
      <trkpt lat="46.8756" lon="-1.0729">
        <ele>82</ele>
        <time>2022-09-02T17:51:49Z</time>
      </trkpt>
      <trkpt lat="46.87559" lon="-1.07226">
        <ele>83</ele>
        <time>2022-09-02T17:51:57Z</time>
      </trkpt>
      <trkpt lat="46.87533" lon="-1.06882">
        <ele>84</ele>
        <time>2022-09-02T17:52:39Z</time>
      </trkpt>
      <trkpt lat="46.87495" lon="-1.06621">
        <ele>86</ele>
        <time>2022-09-02T17:53:12Z</time>
      </trkpt>
      <trkpt lat="46.87491" lon="-1.06575">
        <ele>86</ele>
        <time>2022-09-02T17:53:17Z</time>
      </trkpt>
      <trkpt lat="46.87491" lon="-1.06535">
        <ele>86</ele>
        <time>2022-09-02T17:53:22Z</time>
      </trkpt>
      <trkpt lat="46.87509" lon="-1.06371">
        <ele>85</ele>
        <time>2022-09-02T17:53:42Z</time>
      </trkpt>
      <trkpt lat="46.876" lon="-1.05841">
        <ele>85</ele>
        <time>2022-09-02T17:54:49Z</time>
      </trkpt>
      <trkpt lat="46.87632" lon="-1.05667">
        <ele>87</ele>
        <time>2022-09-02T17:55:11Z</time>
      </trkpt>
      <trkpt lat="46.87669" lon="-1.05473">
        <ele>85</ele>
        <time>2022-09-02T17:55:35Z</time>
      </trkpt>
      <trkpt lat="46.87672" lon="-1.05447">
        <ele>86</ele>
        <time>2022-09-02T17:55:39Z</time>
      </trkpt>
      <trkpt lat="46.87672" lon="-1.05404">
        <ele>86</ele>
        <time>2022-09-02T17:55:44Z</time>
      </trkpt>
      <trkpt lat="46.87667" lon="-1.05353">
        <ele>87</ele>
        <time>2022-09-02T17:55:50Z</time>
      </trkpt>
      <trkpt lat="46.87642" lon="-1.05206">
        <ele>87</ele>
        <time>2022-09-02T17:56:08Z</time>
      </trkpt>
      <trkpt lat="46.87629" lon="-1.05157">
        <ele>87</ele>
        <time>2022-09-02T17:56:15Z</time>
      </trkpt>
      <trkpt lat="46.87599" lon="-1.05073">
        <ele>87</ele>
        <time>2022-09-02T17:56:26Z</time>
      </trkpt>
      <trkpt lat="46.8755" lon="-1.04952">
        <ele>88</ele>
        <time>2022-09-02T17:56:43Z</time>
      </trkpt>
      <trkpt lat="46.87276" lon="-1.04301">
        <ele>88</ele>
        <time>2022-09-02T17:58:16Z</time>
      </trkpt>
      <trkpt lat="46.87239" lon="-1.04208">
        <ele>89</ele>
        <time>2022-09-02T17:58:30Z</time>
      </trkpt>
      <trkpt lat="46.87221" lon="-1.04151">
        <ele>91</ele>
        <time>2022-09-02T17:58:37Z</time>
      </trkpt>
      <trkpt lat="46.87213" lon="-1.04106">
        <ele>92</ele>
        <time>2022-09-02T17:58:43Z</time>
      </trkpt>
      <trkpt lat="46.87206" lon="-1.04041">
        <ele>92</ele>
        <time>2022-09-02T17:58:51Z</time>
      </trkpt>
      <trkpt lat="46.872" lon="-1.04009">
        <ele>92</ele>
        <time>2022-09-02T17:58:55Z</time>
      </trkpt>
      <trkpt lat="46.87181" lon="-1.03922">
        <ele>92</ele>
        <time>2022-09-02T17:59:06Z</time>
      </trkpt>
      <trkpt lat="46.8717" lon="-1.03886">
        <ele>91</ele>
        <time>2022-09-02T17:59:11Z</time>
      </trkpt>
      <trkpt lat="46.87164" lon="-1.03871">
        <ele>91</ele>
        <time>2022-09-02T17:59:13Z</time>
      </trkpt>
      <trkpt lat="46.87136" lon="-1.03817">
        <ele>90</ele>
        <time>2022-09-02T17:59:21Z</time>
      </trkpt>
      <trkpt lat="46.8713" lon="-1.03822">
        <ele>90</ele>
        <time>2022-09-02T17:59:22Z</time>
      </trkpt>
      <trkpt lat="46.87123" lon="-1.03821">
        <ele>91</ele>
        <time>2022-09-02T17:59:24Z</time>
      </trkpt>
      <trkpt lat="46.87117" lon="-1.03817">
        <ele>91</ele>
        <time>2022-09-02T17:59:25Z</time>
      </trkpt>
      <trkpt lat="46.87113" lon="-1.0381">
        <ele>91</ele>
        <time>2022-09-02T17:59:26Z</time>
      </trkpt>
      <trkpt lat="46.87112" lon="-1.03802">
        <ele>91</ele>
        <time>2022-09-02T17:59:27Z</time>
      </trkpt>
      <trkpt lat="46.87112" lon="-1.03796">
        <ele>91</ele>
        <time>2022-09-02T17:59:28Z</time>
      </trkpt>
      <trkpt lat="46.87115" lon="-1.03787">
        <ele>91</ele>
        <time>2022-09-02T17:59:29Z</time>
      </trkpt>
      <trkpt lat="46.87121" lon="-1.03781">
        <ele>91</ele>
        <time>2022-09-02T17:59:30Z</time>
      </trkpt>
      <trkpt lat="46.87126" lon="-1.03779">
        <ele>90</ele>
        <time>2022-09-02T17:59:31Z</time>
      </trkpt>
      <trkpt lat="46.87117" lon="-1.03691">
        <ele>91</ele>
        <time>2022-09-02T17:59:42Z</time>
      </trkpt>
      <trkpt lat="46.87116" lon="-1.03652">
        <ele>91</ele>
        <time>2022-09-02T17:59:47Z</time>
      </trkpt>
      <trkpt lat="46.87124" lon="-1.03601">
        <ele>91</ele>
        <time>2022-09-02T17:59:53Z</time>
      </trkpt>
      <trkpt lat="46.87167" lon="-1.03443">
        <ele>91</ele>
        <time>2022-09-02T18:00:14Z</time>
      </trkpt>
      <trkpt lat="46.87176" lon="-1.03388">
        <ele>91</ele>
        <time>2022-09-02T18:00:21Z</time>
      </trkpt>
      <trkpt lat="46.8718" lon="-1.03336">
        <ele>91</ele>
        <time>2022-09-02T18:00:27Z</time>
      </trkpt>
      <trkpt lat="46.87181" lon="-1.03298">
        <ele>90</ele>
        <time>2022-09-02T18:00:32Z</time>
      </trkpt>
      <trkpt lat="46.8718" lon="-1.03261">
        <ele>90</ele>
        <time>2022-09-02T18:00:36Z</time>
      </trkpt>
      <trkpt lat="46.87152" lon="-1.0295">
        <ele>93</ele>
        <time>2022-09-02T18:01:14Z</time>
      </trkpt>
      <trkpt lat="46.8715" lon="-1.02876">
        <ele>94</ele>
        <time>2022-09-02T18:01:23Z</time>
      </trkpt>
      <trkpt lat="46.87151" lon="-1.02839">
        <ele>94</ele>
        <time>2022-09-02T18:01:28Z</time>
      </trkpt>
      <trkpt lat="46.87149" lon="-1.0276">
        <ele>95</ele>
        <time>2022-09-02T18:01:37Z</time>
      </trkpt>
      <trkpt lat="46.87144" lon="-1.02741">
        <ele>95</ele>
        <time>2022-09-02T18:01:40Z</time>
      </trkpt>
      <trkpt lat="46.8714" lon="-1.02736">
        <ele>96</ele>
        <time>2022-09-02T18:01:41Z</time>
      </trkpt>
      <trkpt lat="46.87135" lon="-1.02727">
        <ele>96</ele>
        <time>2022-09-02T18:01:42Z</time>
      </trkpt>
      <trkpt lat="46.87133" lon="-1.02717">
        <ele>96</ele>
        <time>2022-09-02T18:01:43Z</time>
      </trkpt>
      <trkpt lat="46.87135" lon="-1.02699">
        <ele>97</ele>
        <time>2022-09-02T18:01:46Z</time>
      </trkpt>
      <trkpt lat="46.87135" lon="-1.02683">
        <ele>98</ele>
        <time>2022-09-02T18:01:48Z</time>
      </trkpt>
      <trkpt lat="46.87133" lon="-1.02668">
        <ele>98</ele>
        <time>2022-09-02T18:01:49Z</time>
      </trkpt>
      <trkpt lat="46.87116" lon="-1.02635">
        <ele>99</ele>
        <time>2022-09-02T18:01:54Z</time>
      </trkpt>
      <trkpt lat="46.87103" lon="-1.0259">
        <ele>100</ele>
        <time>2022-09-02T18:02:00Z</time>
      </trkpt>
      <trkpt lat="46.87043" lon="-1.02436">
        <ele>103</ele>
        <time>2022-09-02T18:02:22Z</time>
      </trkpt>
      <trkpt lat="46.8703" lon="-1.02394">
        <ele>104</ele>
        <time>2022-09-02T18:02:28Z</time>
      </trkpt>
      <trkpt lat="46.8701" lon="-1.02264">
        <ele>105</ele>
        <time>2022-09-02T18:02:44Z</time>
      </trkpt>
      <trkpt lat="46.87006" lon="-1.02207">
        <ele>106</ele>
        <time>2022-09-02T18:02:51Z</time>
      </trkpt>
      <trkpt lat="46.87007" lon="-1.02146">
        <ele>107</ele>
        <time>2022-09-02T18:02:58Z</time>
      </trkpt>
      <trkpt lat="46.8701" lon="-1.02108">
        <ele>107</ele>
        <time>2022-09-02T18:03:03Z</time>
      </trkpt>
      <trkpt lat="46.87008" lon="-1.02102">
        <ele>107</ele>
        <time>2022-09-02T18:03:04Z</time>
      </trkpt>
      <trkpt lat="46.87003" lon="-1.02097">
        <ele>107</ele>
        <time>2022-09-02T18:03:05Z</time>
      </trkpt>
      <trkpt lat="46.87011" lon="-1.02077">
        <ele>107</ele>
        <time>2022-09-02T18:03:08Z</time>
      </trkpt>
      <trkpt lat="46.87023" lon="-1.0204">
        <ele>108</ele>
        <time>2022-09-02T18:03:13Z</time>
      </trkpt>
      <trkpt lat="46.87038" lon="-1.01927">
        <ele>108</ele>
        <time>2022-09-02T18:03:27Z</time>
      </trkpt>
      <trkpt lat="46.87057" lon="-1.01818">
        <ele>110</ele>
        <time>2022-09-02T18:03:40Z</time>
      </trkpt>
      <trkpt lat="46.87071" lon="-1.01733">
        <ele>110</ele>
        <time>2022-09-02T18:03:51Z</time>
      </trkpt>
      <trkpt lat="46.87075" lon="-1.01712">
        <ele>110</ele>
        <time>2022-09-02T18:03:53Z</time>
      </trkpt>
      <trkpt lat="46.87073" lon="-1.01709">
        <ele>110</ele>
        <time>2022-09-02T18:03:54Z</time>
      </trkpt>
      <trkpt lat="46.87072" lon="-1.01706">
        <ele>110</ele>
        <time>2022-09-02T18:03:54Z</time>
      </trkpt>
      <trkpt lat="46.87073" lon="-1.01702">
        <ele>110</ele>
        <time>2022-09-02T18:03:55Z</time>
      </trkpt>
      <trkpt lat="46.87077" lon="-1.017">
        <ele>110</ele>
        <time>2022-09-02T18:03:56Z</time>
      </trkpt>
      <trkpt lat="46.87103" lon="-1.01544">
        <ele>108</ele>
        <time>2022-09-02T18:04:15Z</time>
      </trkpt>
      <trkpt lat="46.87107" lon="-1.01537">
        <ele>109</ele>
        <time>2022-09-02T18:04:16Z</time>
      </trkpt>
      <trkpt lat="46.8711" lon="-1.01428">
        <ele>107</ele>
        <time>2022-09-02T18:04:30Z</time>
      </trkpt>
      <trkpt lat="46.87115" lon="-1.0134">
        <ele>108</ele>
        <time>2022-09-02T18:04:40Z</time>
      </trkpt>
      <trkpt lat="46.87115" lon="-1.0132">
        <ele>108</ele>
        <time>2022-09-02T18:04:43Z</time>
      </trkpt>
      <trkpt lat="46.87114" lon="-1.01307">
        <ele>108</ele>
        <time>2022-09-02T18:04:44Z</time>
      </trkpt>
      <trkpt lat="46.87064" lon="-1.01137">
        <ele>103</ele>
        <time>2022-09-02T18:05:07Z</time>
      </trkpt>
      <trkpt lat="46.8704" lon="-1.0106">
        <ele>102</ele>
        <time>2022-09-02T18:05:17Z</time>
      </trkpt>
      <trkpt lat="46.87006" lon="-1.00942">
        <ele>102</ele>
        <time>2022-09-02T18:05:33Z</time>
      </trkpt>
      <trkpt lat="46.87001" lon="-1.00935">
        <ele>103</ele>
        <time>2022-09-02T18:05:34Z</time>
      </trkpt>
      <trkpt lat="46.86996" lon="-1.00934">
        <ele>103</ele>
        <time>2022-09-02T18:05:35Z</time>
      </trkpt>
      <trkpt lat="46.86996" lon="-1.00928">
        <ele>103</ele>
        <time>2022-09-02T18:05:36Z</time>
      </trkpt>
      <trkpt lat="46.86998" lon="-1.00924">
        <ele>103</ele>
        <time>2022-09-02T18:05:36Z</time>
      </trkpt>
      <trkpt lat="46.86999" lon="-1.00914">
        <ele>103</ele>
        <time>2022-09-02T18:05:37Z</time>
      </trkpt>
      <trkpt lat="46.86983" lon="-1.00859">
        <ele>105</ele>
        <time>2022-09-02T18:05:45Z</time>
      </trkpt>
      <trkpt lat="46.86948" lon="-1.00671">
        <ele>109</ele>
        <time>2022-09-02T18:06:08Z</time>
      </trkpt>
      <trkpt lat="46.86937" lon="-1.00661">
        <ele>109</ele>
        <time>2022-09-02T18:06:11Z</time>
      </trkpt>
      <trkpt lat="46.86853" lon="-1.00633">
        <ele>112</ele>
        <time>2022-09-02T18:06:26Z</time>
      </trkpt>
      <trkpt lat="46.86836" lon="-1.00634">
        <ele>112</ele>
        <time>2022-09-02T18:06:29Z</time>
      </trkpt>
      <trkpt lat="46.86765" lon="-1.00654">
        <ele>111</ele>
        <time>2022-09-02T18:06:42Z</time>
      </trkpt>
      <trkpt lat="46.86714" lon="-1.00674">
        <ele>111</ele>
        <time>2022-09-02T18:06:51Z</time>
      </trkpt>
      <trkpt lat="46.86712" lon="-1.00666">
        <ele>111</ele>
        <time>2022-09-02T18:06:52Z</time>
      </trkpt>
      <trkpt lat="46.86708" lon="-1.0066">
        <ele>111</ele>
        <time>2022-09-02T18:06:53Z</time>
      </trkpt>
      <trkpt lat="46.86664" lon="-1.00646">
        <ele>111</ele>
        <time>2022-09-02T18:07:01Z</time>
      </trkpt>
      <trkpt lat="46.86595" lon="-1.00621">
        <ele>116</ele>
        <time>2022-09-02T18:07:14Z</time>
      </trkpt>
      <trkpt lat="46.86573" lon="-1.00609">
        <ele>117</ele>
        <time>2022-09-02T18:07:18Z</time>
      </trkpt>
      <trkpt lat="46.86523" lon="-1.00577">
        <ele>118</ele>
        <time>2022-09-02T18:07:28Z</time>
      </trkpt>
      <trkpt lat="46.86495" lon="-1.00567">
        <ele>119</ele>
        <time>2022-09-02T18:07:33Z</time>
      </trkpt>
      <trkpt lat="46.86461" lon="-1.00561">
        <ele>120</ele>
        <time>2022-09-02T18:07:39Z</time>
      </trkpt>
      <trkpt lat="46.86426" lon="-1.00564">
        <ele>120</ele>
        <time>2022-09-02T18:07:45Z</time>
      </trkpt>
      <trkpt lat="46.86391" lon="-1.00556">
        <ele>120</ele>
        <time>2022-09-02T18:07:52Z</time>
      </trkpt>
      <trkpt lat="46.86381" lon="-1.00562">
        <ele>120</ele>
        <time>2022-09-02T18:07:54Z</time>
      </trkpt>
      <trkpt lat="46.86367" lon="-1.00578">
        <ele>120</ele>
        <time>2022-09-02T18:07:57Z</time>
      </trkpt>
    </trkseg>
  </trk>
</gpx>